AC885 / C-GFAH 7700 Squawk Report (22nd of June, 2018)

Aircraft A333 Reg No. C-GFAH Age 19 years old
Model A330 Jet engines 2 First flight 30-08-99
Registered 15-10-99 Rollout 08-99 Delivered 15-10-99
Construction No. 279 Line No. N/A Series 343X
ADSHEX C051E4 Airline name Air Canada Owner N/A
Airfield based Montreal-Dorval~QC~C First tracked 2011-04-11 00:23:03

Flight history for C-GFAH

Route Flight No Date Playback
Mohammed V Intl (CMN) - Pierre Elliott Trudeau Intl (YUL) AC809 2018-12-17 10:08:00
Pierre Elliott Trudeau Intl (YUL) - Mohammed V Intl (CMN) AC808 2018-12-17 07:43:00
Frankfurt Main (FRA) - Pierre Elliott Trudeau Intl (YUL) AC875 2018-12-17 01:19:00
Pierre Elliott Trudeau Intl (YUL) - Frankfurt Main (FRA) AC874 2018-12-16 10:13:00
Heathrow (LHR) - Pierre Elliott Trudeau Intl (YUL) AC865 2018-12-15 23:44:00
Pierre Elliott Trudeau Intl (YUL) - Heathrow (LHR) AC864 2018-12-15 13:13:00
Mohammed V Intl (CMN) - Pierre Elliott Trudeau Intl (YUL) AC809 2018-12-14 17:13:00
Pierre Elliott Trudeau Intl (YUL) - Mohammed V Intl (CMN) AC808 2018-12-14 06:28:00
Heathrow (LHR) - Pierre Elliott Trudeau Intl (YUL) AC865 2018-12-14 00:30:00
Pierre Elliott Trudeau Intl (YUL) - Heathrow (LHR) AC864 2018-12-13 13:09:00
Mohammed V Intl (CMN) - Pierre Elliott Trudeau Intl (YUL) AC809 2018-12-13 01:38:00
Pierre Elliott Trudeau Intl (YUL) - Mohammed V Intl (CMN) AC808 2018-12-12 06:45:00
Lester B Pearson Intl (YYZ) - Pierre Elliott Trudeau Intl (YUL) AC422 2018-12-11 00:39:00
Schiphol (AMS) - Lester B Pearson Intl (YYZ) AC825 2018-12-10 23:28:00
Lester B Pearson Intl (YYZ) - Schiphol (AMS) AC824 2018-12-10 10:50:00
Geneve Cointrin (GVA) - Pierre Elliott Trudeau Intl (YUL) - Lester B Pearson Intl (YYZ) AC835 2018-12-10 01:17:00
Saint Exupery (LYS) - Pierre Elliott Trudeau Intl (YUL) AC829 2018-12-09 21:30:00
Pierre Elliott Trudeau Intl (YUL) - Saint Exupery (LYS) AC828 2018-12-09 11:10:00
Vancouver Intl (YVR) - Pierre Elliott Trudeau Intl (YUL) AC302 2018-12-09 00:04:00
Pierre Elliott Trudeau Intl (YUL) - Vancouver Intl (YVR) AC301 2018-12-08 18:05:00
Time Lat Lon Altitude Heading Speed Vertical Rate
2018-06-22 17:40:04 GMT 49.021786 2.534915 0 87 98 0
2018-06-22 17:39:58 GMT 49.021557 2.530469 0 84 120 0
2018-06-22 17:39:38 GMT 49.020622 2.513339 -25 85 139 -704
2018-06-22 17:39:29 GMT 49.020157 2.503799 100 85 141 -704
2018-06-22 17:39:18 GMT 49.019554 2.493029 225 84 139 -576
2018-06-22 17:39:08 GMT 49.018948 2.483272 350 85 138 -640
2018-06-22 17:38:58 GMT 49.018433 2.473544 475 86 137 -704
2018-06-22 17:38:48 GMT 49.017883 2.462769 600 84 135 -704
2018-06-22 17:38:37 GMT 49.017334 2.453402 825 85 138 -576
2018-06-22 17:38:29 GMT 49.016922 2.445092 850 84 136 -768
2018-06-22 17:38:26 GMT 49.016808 2.443302 875 85 135 -640
2018-06-22 17:38:21 GMT 49.016525 2.437953 925 85 134 -704
2018-06-22 17:38:15 GMT 49.016201 2.432243 1,000 84 135 -768
2018-06-22 17:38:11 GMT 49.015968 2.428195 1,050 84 135 -768
2018-06-22 17:38:07 GMT 49.015781 2.425087 1,225 85 136 -768
2018-06-22 17:38:04 GMT 49.015686 2.422556 1,125 85 136 -768
2018-06-22 17:37:58 GMT 49.015320 2.415795 1,225 85 152 -768
2018-06-22 17:37:49 GMT 49.014896 2.407813 1,325 85 146 -640
2018-06-22 17:37:46 GMT 49.014679 2.403964 1,350 85 152 -768
2018-06-22 17:37:42 GMT 49.014481 2.400368 1,825 85 151 -768
2018-06-22 17:37:39 GMT 49.014248 2.396754 1,450 85 151 -768
2018-06-22 17:37:32 GMT 49.013874 2.389960 1,550 85 153 -768
2018-06-22 17:37:29 GMT 49.013489 2.384385 1,600 85 155 -832
2018-06-22 17:37:24 GMT 49.013313 2.379335 1,825 84 158 -896
2018-06-22 17:37:18 GMT 49.013031 2.373892 1,750 85 158 -896
2018-06-22 17:37:13 GMT 49.012711 2.368710 1,975 84 157 -896
2018-06-22 17:37:06 GMT 49.012299 2.361145 1,925 85 158 -640
2018-06-22 17:37:02 GMT 49.012024 2.355863 1,975 85 159 -896
2018-06-22 17:36:56 GMT 49.011612 2.348680 2,050 85 159 -896
2018-06-22 17:36:52 GMT 49.011406 2.344858 2,150 85 159 -896
2018-06-22 17:36:45 GMT 49.010986 2.337052 2,225 84 157 -768
2018-06-22 17:36:42 GMT 49.010754 2.332860 2,275 84 157 -832
2018-06-22 17:36:36 GMT 49.010429 2.327584 2,325 84 157 -832
2018-06-22 17:36:31 GMT 49.010056 2.320932 2,450 86 159 -896
2018-06-22 17:36:28 GMT 49.009964 2.318910 2,450 86 159 -896
2018-06-22 17:36:24 GMT 49.009689 2.313397 2,575 84 160 -768
2018-06-22 17:36:20 GMT 49.009403 2.309225 2,575 85 163 -1024
2018-06-22 17:36:13 GMT 49.008957 2.301143 2,675 85 163 -960
2018-06-22 17:36:08 GMT 49.008659 2.295492 2,750 84 170 -896
2018-06-22 17:36:04 GMT 49.008335 2.289710 2,825 84 168 -1088
2018-06-22 17:36:00 GMT 49.008179 2.287199 2,875 84 170 -896
2018-06-22 17:35:57 GMT 49.007904 2.282691 2,925 85 172 -1024
2018-06-22 17:35:52 GMT 49.007538 2.276353 3,000 85 174 -1152
2018-06-22 17:35:49 GMT 49.007401 2.273254 3,075 85 177 -1024
2018-06-22 17:35:42 GMT 49.006889 2.263979 3,200 84 179 -1152
2018-06-22 17:35:38 GMT 49.006622 2.259099 3,275 85 183 -1152
2018-06-22 17:35:29 GMT 49.006004 2.247571 3,475 85 188 -960
2018-06-22 17:35:26 GMT 49.005615 2.243183 3,475 85 188 -960
2018-06-22 17:35:20 GMT 49.005341 2.236211 3,550 84 188 -256
2018-06-22 17:35:17 GMT 49.005169 2.232610 3,575 84 187 0
2018-06-22 17:35:12 GMT 49.004562 2.222830 3,600 84 187 0
2018-06-22 17:35:07 GMT 49.004288 2.218534 3,575 85 187 64
2018-06-22 17:35:01 GMT 49.003784 2.210717 3,575 84 186 -128
2018-06-22 17:34:56 GMT 49.003418 2.203674 3,600 85 184 0
2018-06-22 17:34:51 GMT 49.003098 2.197899 3,600 85 184 0
2018-06-22 17:34:45 GMT 49.002701 2.190833 3,575 85 184 0
2018-06-22 17:34:35 GMT 49.001911 2.177461 3,600 85 184 0
2018-06-22 17:34:29 GMT 49.001541 2.169729 3,600 85 186 -64
2018-06-22 17:34:24 GMT 49.001118 2.162789 3,600 85 186 64
2018-06-22 17:34:18 GMT 49.000717 2.155433 3,575 85 187 0
2018-06-22 17:34:15 GMT 49.000443 2.150503 3,600 85 188 0
2018-06-22 17:34:12 GMT 49.000305 2.147616 3,600 85 188 0
2018-06-22 17:34:05 GMT 48.999710 2.136207 3,600 86 187 0
2018-06-22 17:34:02 GMT 48.999580 2.133661 3,600 85 186 64
2018-06-22 17:33:56 GMT 48.999210 2.126360 3,600 85 186 64
2018-06-22 17:33:51 GMT 48.998882 2.119928 3,575 85 187 128
2018-06-22 17:33:44 GMT 48.998417 2.109809 3,575 85 186 0
2018-06-22 17:33:41 GMT 48.998138 2.105906 3,600 85 184 0
2018-06-22 17:33:35 GMT 48.997650 2.097966 3,575 85 182 320
2018-06-22 17:33:32 GMT 48.997536 2.094124 3,575 85 181 64
2018-06-22 17:33:25 GMT 48.997021 2.085089 3,575 84 181 -128
2018-06-22 17:33:22 GMT 48.996826 2.081839 3,600 84 182 0
2018-06-22 17:33:17 GMT 48.996506 2.076205 3,600 84 182 0
2018-06-22 17:33:12 GMT 48.995956 2.067683 3,600 84 184 0
2018-06-22 17:33:05 GMT 48.995533 2.060732 3,600 84 187 0
2018-06-22 17:32:59 GMT 48.994972 2.051986 3,600 84 189 0
2018-06-22 17:32:54 GMT 48.994583 2.045570 3,600 84 195 0
2018-06-22 17:32:50 GMT 48.994274 2.040204 3,575 86 201 0
2018-06-22 17:32:44 GMT 48.993950 2.031025 3,575 91 208 0
2018-06-22 17:32:41 GMT 48.994034 2.026907 3,575 95 211 128
2018-06-22 17:32:37 GMT 48.994461 2.020978 3,575 99 214 192
2018-06-22 17:32:32 GMT 48.995499 2.015146 3,600 117 226 -64
2018-06-22 17:32:29 GMT 48.997467 2.008949 3,600 121 229 64
2018-06-22 17:32:20 GMT 49.002281 1.997054 3,600 122 230 -256
2018-06-22 17:32:16 GMT 49.004143 1.992573 3,575 122 230 -384
2018-06-22 17:32:10 GMT 49.007721 1.983736 3,600 121 234 384
2018-06-22 17:32:07 GMT 49.009823 1.978623 3,575 121 237 -128
2018-06-22 17:32:00 GMT 49.013077 1.970567 3,600 121 240 0
2018-06-22 17:31:56 GMT 49.015877 1.963517 3,625 121 245 -256
2018-06-22 17:31:49 GMT 49.019737 1.953759 3,650 121 248 -320
2018-06-22 17:31:45 GMT 49.022533 1.946748 3,675 121 250 -384
2018-06-22 17:31:38 GMT 49.026211 1.937714 3,725 121 253 -256
2018-06-22 17:31:35 GMT 49.028862 1.930992 3,775 121 262 -384
2018-06-22 17:31:29 GMT 49.032532 1.921974 3,775 121 259 -384
2018-06-22 17:31:26 GMT 49.034271 1.917537 3,800 121 260 -384
2018-06-22 17:31:23 GMT 49.035965 1.913311 3,825 121 262 -384
2018-06-22 17:31:16 GMT 49.041046 1.900635 3,850 121 267 -448
2018-06-22 17:31:13 GMT 49.042130 1.897888 3,875 121 268 -960
2018-06-22 17:31:07 GMT 49.046402 1.887254 3,975 121 267 -1664
2018-06-22 17:31:03 GMT 49.049011 1.880704 4,375 121 265 -1792
2018-06-22 17:30:56 GMT 49.053631 1.869700 4,300 124 267 -1920
2018-06-22 17:30:52 GMT 49.056328 1.863845 4,425 129 269 -1984
2018-06-22 17:30:44 GMT 49.063267 1.851991 4,700 137 272 -1856
2018-06-22 17:30:40 GMT 49.066616 1.847438 4,825 140 273 -1984
2018-06-22 17:30:35 GMT 49.071831 1.840933 5,025 140 274 -1920
2018-06-22 17:30:31 GMT 49.075787 1.836018 5,125 140 275 -1792
2018-06-22 17:30:24 GMT 49.082912 1.827055 5,400 140 277 -1856
2018-06-22 17:30:21 GMT 49.086456 1.822604 5,475 140 278 -1920
2018-06-22 17:30:12 GMT 49.093292 1.814045 5,775 140 279 -1856
2018-06-22 17:30:09 GMT 49.096737 1.809708 5,800 140 279 -1920
2018-06-22 17:30:02 GMT 49.104446 1.800068 6,175 141 292 -2112
2018-06-22 17:29:59 GMT 49.107651 1.796053 6,175 140 280 -2176
2018-06-22 17:29:55 GMT 49.112099 1.790555 6,350 141 281 -2048
2018-06-22 17:29:52 GMT 49.114792 1.787321 6,525 141 281 -1984
2018-06-22 17:29:47 GMT 49.119453 1.781664 6,575 141 283 -1792
2018-06-22 17:29:41 GMT 49.126064 1.773641 6,775 141 286 -1536
2018-06-22 17:29:38 GMT 49.128902 1.770244 6,900 141 288 -1664
2018-06-22 17:29:34 GMT 49.133331 1.764855 6,950 141 288 -1728
2018-06-22 17:29:31 GMT 49.136261 1.761334 7,050 141 290 -1856
2018-06-22 17:29:26 GMT 49.141388 1.755136 7,200 141 291 -2048
2018-06-22 17:29:20 GMT 49.147572 1.747621 7,400 141 292 -2112
2018-06-22 17:29:13 GMT 49.154572 1.739150 7,650 141 292 -1984
2018-06-22 17:29:08 GMT 49.159195 1.733586 7,775 141 293 -1856
2018-06-22 17:29:03 GMT 49.166939 1.724131 7,975 141 295 -1600
2018-06-22 17:28:59 GMT 49.170383 1.719866 8,100 141 295 -1600
2018-06-22 17:28:53 GMT 49.175995 1.713022 8,225 140 299 -1792
2018-06-22 17:28:48 GMT 49.182587 1.704782 8,400 140 298 -1792
2018-06-22 17:28:42 GMT 49.187897 1.698092 8,575 140 299 -1856
2018-06-22 17:28:37 GMT 49.192841 1.691965 8,700 140 299 -1856
2018-06-22 17:28:34 GMT 49.195518 1.688570 8,775 140 299 -1920
2018-06-22 17:28:31 GMT 49.199337 1.683799 8,900 140 300 -1920
2018-06-22 17:28:27 GMT 49.204411 1.677511 9,050 140 300 -1920
2018-06-22 17:28:21 GMT 49.210369 1.670066 9,225 140 301 -1792
2018-06-22 17:28:15 GMT 49.215958 1.663200 9,375 141 303 -1728
2018-06-22 17:28:12 GMT 49.219849 1.658372 10,025 141 303 -1792
2018-06-22 17:28:09 GMT 49.223145 1.654287 9,575 141 304 -1856
2018-06-22 17:28:06 GMT 49.227596 1.648817 9,700 141 304 -1984
2018-06-22 17:28:00 GMT 49.234497 1.640343 9,900 141 305 -1920
2018-06-22 17:27:54 GMT 49.240219 1.633301 10,075 141 307 -1920
2018-06-22 17:27:49 GMT 49.246494 1.625471 10,250 140 309 -1600
2018-06-22 17:27:46 GMT 49.248543 1.623013 10,300 140 309 -1472
2018-06-22 17:27:38 GMT 49.257751 1.611469 10,425 140 313 -1216
2018-06-22 17:27:35 GMT 49.261368 1.606891 10,525 140 320 -768
2018-06-22 17:27:29 GMT 49.267456 1.599215 10,575 140 325 -640
2018-06-22 17:27:24 GMT 49.274239 1.590560 10,700 140 330 -640
2018-06-22 17:27:19 GMT 49.280197 1.582971 10,700 140 335 -448
2018-06-22 17:27:16 GMT 49.282715 1.579791 10,725 140 335 -448
2018-06-22 17:27:13 GMT 49.286499 1.574918 10,750 139 337 -448
2018-06-22 17:27:10 GMT 49.290619 1.569566 10,775 138 339 -448
2018-06-22 17:27:05 GMT 49.296890 1.560974 10,900 130 344 -512
2018-06-22 17:26:59 GMT 49.303299 1.550622 10,875 122 346 -512
2018-06-22 17:26:54 GMT 49.307739 1.541114 10,925 116 348 -576
2018-06-22 17:26:49 GMT 49.310738 1.533243 11,000 100 351 -1344
2018-06-22 17:26:44 GMT 49.315109 1.515902 11,100 104 350 -1024
2018-06-22 17:26:40 GMT 49.316368 1.507440 11,100 100 351 -1280
2018-06-22 17:26:35 GMT 49.317394 1.498550 11,175 98 353 -1408
2018-06-22 17:26:32 GMT 49.318222 1.490479 11,250 98 366 -448
2018-06-22 17:26:25 GMT 49.320278 1.469349 11,475 98 353 -1920
2018-06-22 17:26:19 GMT 49.321472 1.457167 11,625 98 353 -1920
2018-06-22 17:26:12 GMT 49.323074 1.440547 12,375 98 381 -1728
2018-06-22 17:26:03 GMT 49.325180 1.419138 12,000 98 356 -256
2018-06-22 17:26:00 GMT 49.325958 1.411180 12,000 98 358 -128
2018-06-22 17:25:55 GMT 49.327423 1.396109 12,025 98 364 -320
2018-06-22 17:25:52 GMT 49.327869 1.391577 12,025 98 366 -448
2018-06-22 17:25:49 GMT 49.328613 1.383925 12,050 98 367 -576
2018-06-22 17:25:42 GMT 49.330536 1.364277 12,150 98 373 -1600
2018-06-22 17:25:38 GMT 49.331543 1.353854 12,250 98 373 -1600
2018-06-22 17:25:33 GMT 49.333080 1.338236 12,425 98 375 -1600
2018-06-22 17:25:30 GMT 49.333557 1.333430 13,325 98 381 -1728
2018-06-22 17:25:27 GMT 49.334381 1.325050 13,325 98 381 -1728
2018-06-22 17:25:24 GMT 49.335159 1.317162 12,650 98 376 -1664
2018-06-22 17:25:18 GMT 49.336666 1.301663 12,800 98 379 -1664
2018-06-22 17:25:12 GMT 49.337971 1.288508 13,025 98 380 -1664
2018-06-22 17:25:09 GMT 49.339050 1.277442 13,125 98 380 -1664
2018-06-22 17:24:59 GMT 49.341614 1.250610 13,425 98 382 -1664
2018-06-22 17:24:55 GMT 49.342670 1.239504 13,425 98 382 -1664
2018-06-22 17:24:51 GMT 49.343651 1.229168 13,550 98 384 -1664
2018-06-22 17:24:47 GMT 49.344952 1.215652 13,675 98 385 -1664
2018-06-22 17:24:41 GMT 49.346375 1.200820 13,825 98 387 -1728
2018-06-22 17:24:37 GMT 49.347233 1.191872 14,025 98 387 -1664
2018-06-22 17:24:34 GMT 49.348026 1.183849 14,025 98 388 -1664
2018-06-22 17:24:27 GMT 49.350037 1.162931 14,225 98 390 -1664
2018-06-22 17:24:22 GMT 49.351227 1.150325 14,350 98 392 -1792
2018-06-22 17:24:17 GMT 49.352448 1.137808 14,475 98 393 -1664
2018-06-22 17:24:14 GMT 49.353287 1.128556 14,575 98 393 -1664
2018-06-22 17:24:04 GMT 49.355713 1.102929 14,975 98 394 -1664
2018-06-22 17:23:55 GMT 49.358219 1.076805 15,125 98 394 -1728
2018-06-22 17:23:52 GMT 49.358967 1.068854 15,325 98 395 -1728
2018-06-22 17:23:44 GMT 49.361298 1.044405 15,450 98 398 -1664
2018-06-22 17:23:30 GMT 49.364731 1.007855 15,825 98 396 -1664
2018-06-22 17:23:26 GMT 49.365829 0.996164 16,100 98 405 -1728
2018-06-22 17:23:23 GMT 49.366470 0.989333 16,275 98 398 -1664
2018-06-22 17:23:14 GMT 49.369034 0.962219 16,275 98 398 -1664
2018-06-22 17:23:11 GMT 49.369625 0.955738 16,325 98 399 -1728
2018-06-22 17:23:03 GMT 49.371952 0.930730 16,600 98 400 -1728
2018-06-22 17:23:00 GMT 49.372463 0.925309 16,650 98 400 -1728
2018-06-22 17:22:51 GMT 49.375076 0.897217 16,925 98 403 -1728
2018-06-22 17:22:41 GMT 49.377548 0.870807 17,325 98 404 -1728
2018-06-22 17:22:36 GMT 49.378841 0.856934 17,325 98 405 -1728
2018-06-22 17:22:30 GMT 49.380524 0.838623 17,525 98 406 -1728
2018-06-22 17:22:24 GMT 49.381943 0.823693 17,525 98 406 -1728
2018-06-22 17:22:20 GMT 49.383133 0.810594 18,075 97 414 -1792
2018-06-22 17:22:13 GMT 49.384987 0.790365 19,850 97 417 -1792
2018-06-22 17:22:08 GMT 49.386292 0.776199 18,125 97 410 -1728
2018-06-22 17:21:59 GMT 49.388805 0.748877 18,375 97 409 -1728
2018-06-22 17:21:56 GMT 49.389458 0.741649 18,475 97 410 -1728
2018-06-22 17:21:51 GMT 49.391132 0.723508 18,625 98 413 -1792
2018-06-22 17:21:48 GMT 49.391830 0.715918 18,725 98 412 -1792
2018-06-22 17:21:43 GMT 49.392948 0.703631 18,850 98 413 -1792
2018-06-22 17:21:38 GMT 49.394390 0.687947 19,000 97 413 -1792
2018-06-22 17:21:33 GMT 49.395508 0.675804 19,150 97 414 -1792
2018-06-22 17:21:29 GMT 49.396439 0.665974 19,325 97 414 -1792
2018-06-22 17:21:25 GMT 49.397976 0.649133 19,375 97 414 -1792
2018-06-22 17:21:19 GMT 49.399467 0.632581 19,550 97 415 -1728
2018-06-22 17:21:15 GMT 49.400345 0.622699 19,650 97 415 -1792
2018-06-22 17:21:08 GMT 49.402039 0.603896 20,025 97 416 -1792
2018-06-22 17:21:05 GMT 49.403095 0.592250 20,025 97 417 -1792
2018-06-22 17:21:00 GMT 49.404541 0.575770 20,125 97 417 -1792
2018-06-22 17:20:57 GMT 49.404922 0.571571 20,250 97 418 -1792
2018-06-22 17:20:54 GMT 49.405792 0.561852 20,350 97 418 -1792
2018-06-22 17:20:48 GMT 49.407440 0.543542 20,625 97 419 -1792
2018-06-22 17:20:44 GMT 49.408638 0.530163 20,600 97 419 -1856
2018-06-22 17:20:40 GMT 49.409683 0.518329 20,675 97 419 -1856
2018-06-22 17:20:36 GMT 49.410404 0.510214 20,975 97 420 -1856
2018-06-22 17:20:33 GMT 49.411560 0.497836 20,900 97 420 -1728
2018-06-22 17:20:26 GMT 49.413059 0.481086 21,150 97 422 -1728
2018-06-22 17:20:22 GMT 49.414490 0.465017 21,500 97 425 -1728
2018-06-22 17:20:16 GMT 49.415680 0.451707 21,325 97 424 -1664
2018-06-22 17:20:12 GMT 49.417110 0.435478 21,650 97 424 -1728
2018-06-22 17:20:09 GMT 49.417786 0.428256 21,550 97 425 -1728
2018-06-22 17:20:06 GMT 49.418694 0.417625 21,675 97 426 -1728
2018-06-22 17:20:02 GMT 49.419479 0.409029 21,725 97 427 -1728
2018-06-22 17:19:57 GMT 49.421036 0.391564 22,625 97 427 -1728
2018-06-22 17:19:52 GMT 49.422417 0.375776 22,000 97 430 -1728
2018-06-22 17:19:49 GMT 49.423370 0.365084 22,550 97 430 -1728
2018-06-22 17:19:44 GMT 49.424332 0.354450 22,375 97 430 -1728
2018-06-22 17:19:41 GMT 49.425163 0.344841 22,325 97 431 -1728
2018-06-22 17:19:33 GMT 49.427399 0.319905 22,550 97 437 -1728
2018-06-22 17:19:30 GMT 49.428223 0.310653 22,650 97 434 -1728
2018-06-22 17:19:27 GMT 49.429165 0.299674 22,950 97 441 -1664
2018-06-22 17:19:21 GMT 49.430565 0.283566 22,850 97 438 -1728
2018-06-22 17:19:15 GMT 49.432144 0.265602 23,050 97 438 -1728
2018-06-22 17:19:12 GMT 49.432800 0.258323 23,400 97 438 -1728
2018-06-22 17:19:04 GMT 49.435364 0.228472 23,375 97 439 -1664
2018-06-22 17:19:00 GMT 49.436054 0.220840 23,450 97 441 -1856
2018-06-22 17:18:54 GMT 49.437824 0.200352 23,900 97 441 -1728
2018-06-22 17:18:50 GMT 49.439083 0.185654 24,050 97 446 -1856
2018-06-22 17:18:45 GMT 49.440170 0.173252 23,925 97 441 -1024
2018-06-22 17:18:41 GMT 49.441223 0.161109 24,125 97 442 -1024
2018-06-22 17:18:37 GMT 49.442596 0.145280 24,075 97 441 -1024
2018-06-22 17:18:33 GMT 49.443604 0.133715 24,150 97 442 -1024
2018-06-22 17:18:29 GMT 49.444473 0.123524 24,350 97 445 -2112
2018-06-22 17:18:25 GMT 49.445644 0.109938 24,225 97 445 -2048
2018-06-22 17:18:19 GMT 49.447174 0.092300 24,850 97 446 -1792
2018-06-22 17:18:13 GMT 49.449142 0.069171 24,650 97 445 -1920
2018-06-22 17:18:10 GMT 49.449783 0.061943 24,725 97 449 -1792
2018-06-22 17:18:06 GMT 49.450768 0.050107 24,975 97 453 -2048
2018-06-22 17:18:02 GMT 49.452164 0.033609 24,975 97 453 -2048
2018-06-22 17:17:58 GMT 49.452816 0.026278 25,050 97 449 -1792
2018-06-22 17:17:53 GMT 49.454071 0.011209 25,200 97 450 -1792
2018-06-22 17:17:50 GMT 49.455143 -0.001707 25,375 97 451 -1920
2018-06-22 17:17:46 GMT 49.455872 -0.009974 25,550 97 456 -1920
2018-06-22 17:17:43 GMT 49.457005 -0.023606 25,525 97 453 -2048
2018-06-22 17:17:39 GMT 49.457935 -0.034815 25,650 97 453 -2176
2018-06-22 17:17:36 GMT 49.458729 -0.044242 25,750 97 453 -2240
2018-06-22 17:17:29 GMT 49.461227 -0.074013 26,075 97 455 -2048
2018-06-22 17:17:25 GMT 49.461704 -0.079577 26,700 97 457 -1856
2018-06-22 17:17:19 GMT 49.463428 -0.100213 26,500 97 457 -1856
2018-06-22 17:17:15 GMT 49.464592 -0.113649 26,800 97 457 -1856
2018-06-22 17:17:10 GMT 49.465622 -0.125981 26,625 97 460 -1536
2018-06-22 17:17:06 GMT 49.466675 -0.138919 26,725 97 486 -832
2018-06-22 17:17:02 GMT 49.467957 -0.154098 26,975 97 462 -1344
2018-06-22 17:16:57 GMT 49.469238 -0.169204 27,075 97 486 -832
2018-06-22 17:16:53 GMT 49.470291 -0.181853 27,075 97 468 -896
2018-06-22 17:16:50 GMT 49.471207 -0.192911 27,125 97 474 -704
2018-06-22 17:16:47 GMT 49.472305 -0.206138 27,250 97 500 -1152
2018-06-22 17:16:43 GMT 49.473110 -0.215792 27,175 97 474 -704
2018-06-22 17:16:39 GMT 49.474323 -0.230119 27,275 97 489 -832
2018-06-22 17:16:36 GMT 49.475098 -0.239603 27,350 97 485 -832
2018-06-22 17:16:33 GMT 49.476288 -0.253553 27,500 97 484 -768
2018-06-22 17:16:30 GMT 49.477070 -0.263152 27,350 97 485 -832
2018-06-22 17:16:26 GMT 49.478138 -0.275623 27,400 97 489 -832
2018-06-22 17:16:20 GMT 49.479862 -0.296037 27,525 97 511 0
2018-06-22 17:16:16 GMT 49.481049 -0.310436 27,575 97 498 -960
2018-06-22 17:16:13 GMT 49.481552 -0.316507 28,000 97 512 0
2018-06-22 17:16:10 GMT 49.482609 -0.328848 27,650 97 511 0
2018-06-22 17:16:07 GMT 49.483540 -0.340576 27,725 97 509 -832
2018-06-22 17:16:04 GMT 49.484329 -0.350078 27,825 97 509 -832
2018-06-22 17:16:00 GMT 49.485310 -0.361807 27,850 97 508 -1024
2018-06-22 17:15:57 GMT 49.486450 -0.375414 28,000 97 511 0
2018-06-22 17:15:54 GMT 49.487217 -0.384967 27,975 97 510 -128
2018-06-22 17:15:51 GMT 49.488476 -0.400036 27,975 97 511 -64
2018-06-22 17:15:48 GMT 49.489174 -0.409018 28,000 97 511 0
2018-06-22 17:15:45 GMT 49.490150 -0.420821 28,000 97 511 0
2018-06-22 17:15:42 GMT 49.490849 -0.429655 28,000 97 512 0
2018-06-22 17:15:38 GMT 49.491943 -0.442922 28,000 97 513 0
2018-06-22 17:15:35 GMT 49.492943 -0.455339 28,000 97 513 0
2018-06-22 17:15:32 GMT 49.493546 -0.462510 28,000 97 512 0
2018-06-22 17:15:28 GMT 49.494713 -0.476940 28,000 97 512 0
2018-06-22 17:15:25 GMT 49.495651 -0.488458 28,000 97 512 0
2018-06-22 17:15:18 GMT 49.498032 -0.518020 28,000 97 512 0
2018-06-22 17:15:15 GMT 49.498623 -0.525117 28,000 97 512 0
2018-06-22 17:15:11 GMT 49.500229 -0.545197 28,000 97 512 0
2018-06-22 17:15:08 GMT 49.500778 -0.552135 28,000 97 512 0
2018-06-22 17:15:05 GMT 49.502106 -0.568398 28,000 97 512 0
2018-06-22 17:15:02 GMT 49.502518 -0.573674 28,000 97 512 0
2018-06-22 17:14:57 GMT 49.504028 -0.592828 28,000 97 512 0
2018-06-22 17:14:52 GMT 49.505325 -0.608925 28,000 97 512 0
2018-06-22 17:14:47 GMT 49.506912 -0.628461 28,000 96 512 0
2018-06-22 17:14:44 GMT 49.507748 -0.639063 28,000 96 512 0
2018-06-22 17:14:41 GMT 49.508423 -0.647687 28,000 96 512 0
2018-06-22 17:14:38 GMT 49.509476 -0.660770 28,000 96 512 0
2018-06-22 17:14:35 GMT 49.510254 -0.671033 28,000 96 512 0
2018-06-22 17:14:32 GMT 49.511215 -0.683176 28,000 96 512 0
2018-06-22 17:14:29 GMT 49.512177 -0.694958 28,000 96 512 0
2018-06-22 17:14:25 GMT 49.513229 -0.708329 28,000 96 511 0
2018-06-22 17:14:21 GMT 49.514282 -0.721845 28,000 96 511 0
2018-06-22 17:14:18 GMT 49.514877 -0.729796 28,000 96 511 0
2018-06-22 17:14:15 GMT 49.516033 -0.744621 28,000 96 511 0
2018-06-22 17:14:12 GMT 49.516823 -0.754494 28,000 96 511 0
2018-06-22 17:14:09 GMT 49.517670 -0.765212 28,000 96 511 0
2018-06-22 17:14:05 GMT 49.518921 -0.781291 28,000 96 511 0
2018-06-22 17:14:02 GMT 49.519409 -0.787619 28,000 96 511 0
2018-06-22 17:13:59 GMT 49.520462 -0.800773 28,000 96 511 0
2018-06-22 17:13:55 GMT 49.521618 -0.815883 28,000 96 511 0
2018-06-22 17:13:51 GMT 49.522736 -0.830284 28,000 96 511 0
2018-06-22 17:13:48 GMT 49.523575 -0.841048 27,975 96 511 0
2018-06-22 17:13:44 GMT 49.524994 -0.859319 28,000 96 511 0
2018-06-22 17:13:40 GMT 49.525810 -0.869850 28,000 96 511 0
2018-06-22 17:13:37 GMT 49.526596 -0.879774 28,000 96 511 0
2018-06-22 17:13:33 GMT 49.527878 -0.896325 28,000 96 511 0
2018-06-22 17:13:30 GMT 49.528648 -0.906224 28,000 96 511 0
2018-06-22 17:13:26 GMT 49.529663 -0.919888 27,975 96 511 0
2018-06-22 17:13:23 GMT 49.530624 -0.932103 28,000 96 511 0
2018-06-22 17:13:19 GMT 49.531494 -0.943740 28,000 96 511 0
2018-06-22 17:13:16 GMT 49.532639 -0.958629 28,000 96 511 0
2018-06-22 17:13:13 GMT 49.533211 -0.966129 28,000 96 511 0
2018-06-22 17:13:10 GMT 49.533875 -0.974675 28,000 96 511 0
2018-06-22 17:13:07 GMT 49.534748 -0.986023 27,975 96 511 0
2018-06-22 17:13:04 GMT 49.535477 -0.995781 27,975 96 512 0
2018-06-22 17:13:00 GMT 49.536888 -1.014083 27,975 96 512 0
2018-06-22 17:12:55 GMT 49.538517 -1.035610 27,975 96 512 -64
2018-06-22 17:12:50 GMT 49.539726 -1.051421 27,975 96 512 0
2018-06-22 17:12:43 GMT 49.541355 -1.073171 28,000 96 512 0
2018-06-22 17:12:39 GMT 49.542614 -1.089873 28,000 96 512 0
2018-06-22 17:12:36 GMT 49.543488 -1.101163 28,000 96 512 0
2018-06-22 17:12:33 GMT 49.544083 -1.109185 28,000 96 512 0
2018-06-22 17:12:30 GMT 49.545082 -1.122610 28,000 96 512 0
2018-06-22 17:12:27 GMT 49.545685 -1.130580 28,000 96 512 0
2018-06-22 17:12:23 GMT 49.546967 -1.147927 28,000 96 512 0
2018-06-22 17:12:20 GMT 49.547966 -1.160765 28,000 96 513 0
2018-06-22 17:12:16 GMT 49.548798 -1.171923 28,000 96 513 0
2018-06-22 17:12:13 GMT 49.549549 -1.182441 28,000 96 513 0
2018-06-22 17:12:10 GMT 49.550400 -1.193751 28,000 96 513 0
2018-06-22 17:12:07 GMT 49.551365 -1.206492 28,000 96 513 0
2018-06-22 17:12:04 GMT 49.552002 -1.215290 28,000 96 513 0
2018-06-22 17:12:01 GMT 49.553101 -1.229818 28,000 96 513 0
2018-06-22 17:11:58 GMT 49.553925 -1.240732 28,000 96 513 0
2018-06-22 17:11:55 GMT 49.554344 -1.246874 28,000 96 513 0
2018-06-22 17:11:51 GMT 49.555603 -1.263799 28,000 96 513 0
2018-06-22 17:11:48 GMT 49.556301 -1.272855 28,000 96 514 0
2018-06-22 17:11:45 GMT 49.557186 -1.284732 27,975 96 514 0
2018-06-22 17:11:41 GMT 49.558304 -1.299801 28,000 96 514 0
2018-06-22 17:11:37 GMT 49.559372 -1.314890 28,000 96 514 0
2018-06-22 17:11:33 GMT 49.560444 -1.329346 28,000 96 514 0
2018-06-22 17:11:30 GMT 49.561340 -1.341416 28,000 96 514 0
2018-06-22 17:11:27 GMT 49.562305 -1.354436 28,000 96 514 0
2018-06-22 17:11:22 GMT 49.563171 -1.366425 27,975 96 515 0
2018-06-22 17:11:19 GMT 49.564087 -1.379218 28,000 96 515 0
2018-06-22 17:11:16 GMT 49.564911 -1.390439 28,000 96 515 0
2018-06-22 17:11:13 GMT 49.565552 -1.399022 28,000 96 515 0
2018-06-22 17:11:10 GMT 49.566681 -1.414490 28,000 96 515 0
2018-06-22 17:11:06 GMT 49.567566 -1.427109 28,000 96 515 0
2018-06-22 17:11:03 GMT 49.568344 -1.437908 28,000 96 515 0
2018-06-22 17:11:00 GMT 49.569351 -1.451930 28,000 96 514 0
2018-06-22 17:10:55 GMT 49.570724 -1.470433 28,000 96 515 0
2018-06-22 17:10:50 GMT 49.571686 -1.484022 28,000 96 514 0
2018-06-22 17:10:47 GMT 49.572556 -1.496092 28,000 96 514 0
2018-06-22 17:10:44 GMT 49.573288 -1.506356 28,000 96 514 0
2018-06-22 17:10:41 GMT 49.573990 -1.516262 28,000 96 514 0
2018-06-22 17:10:38 GMT 49.574844 -1.527967 28,000 96 514 0
2018-06-22 17:10:34 GMT 49.575760 -1.540760 28,000 96 514 0
2018-06-22 17:10:31 GMT 49.576675 -1.553554 28,000 96 514 0
2018-06-22 17:10:27 GMT 49.577820 -1.570033 28,000 96 514 0
2018-06-22 17:10:24 GMT 49.578552 -1.579804 28,000 96 514 0
2018-06-22 17:10:21 GMT 49.579514 -1.593451 28,000 96 513 0
2018-06-22 17:10:18 GMT 49.579994 -1.600515 28,000 96 513 0
2018-06-22 17:10:15 GMT 49.580841 -1.612171 28,000 96 514 0
2018-06-22 17:10:12 GMT 49.581848 -1.626121 28,000 96 514 0
2018-06-22 17:10:09 GMT 49.582184 -1.630950 28,000 96 514 0
2018-06-22 17:10:05 GMT 49.583633 -1.651419 28,000 96 513 0
2018-06-22 17:10:01 GMT 49.584419 -1.662721 28,000 96 513 0
2018-06-22 17:09:57 GMT 49.585396 -1.676380 28,000 96 513 0
2018-06-22 17:09:52 GMT 49.586472 -1.692400 28,000 96 513 0
2018-06-22 17:09:49 GMT 49.587490 -1.706370 28,000 96 514 0
2018-06-22 17:09:45 GMT 49.588284 -1.718098 28,000 96 514 0
2018-06-22 17:09:41 GMT 49.589630 -1.737473 28,000 96 514 0
2018-06-22 17:09:38 GMT 49.590191 -1.745787 28,000 96 515 0
2018-06-22 17:09:34 GMT 49.591263 -1.760708 28,000 96 515 0
2018-06-22 17:09:31 GMT 49.591866 -1.769541 28,000 96 515 0
2018-06-22 17:09:28 GMT 49.592796 -1.782977 28,000 96 513 0
2018-06-22 17:09:24 GMT 49.593796 -1.797782 28,000 96 515 0
2018-06-22 17:09:21 GMT 49.594849 -1.812816 28,000 96 515 0
2018-06-22 17:09:18 GMT 49.595169 -1.817442 27,975 96 515 0
2018-06-22 17:09:15 GMT 49.595963 -1.829595 28,000 96 515 0
2018-06-22 17:09:10 GMT 49.597275 -1.848450 28,000 96 515 0
2018-06-22 17:09:07 GMT 49.597778 -1.856039 28,000 96 514 0
2018-06-22 17:09:03 GMT 49.599060 -1.874976 28,000 96 514 0
2018-06-22 17:09:00 GMT 49.599930 -1.887769 28,000 96 514 0
2018-06-22 17:08:57 GMT 49.600433 -1.894925 28,000 96 514 0
2018-06-22 17:08:54 GMT 49.601120 -1.904682 28,000 96 514 0
2018-06-22 17:08:50 GMT 49.602173 -1.920439 28,000 96 514 0
2018-06-22 17:08:46 GMT 49.603130 -1.934633 28,000 96 514 0
2018-06-22 17:08:43 GMT 49.603867 -1.945303 28,000 96 514 0
2018-06-22 17:08:40 GMT 49.604599 -1.955566 28,000 96 514 0
2018-06-22 17:08:37 GMT 49.605457 -1.968334 28,000 96 514 0
2018-06-22 17:08:34 GMT 49.606438 -1.982438 28,000 96 514 0
2018-06-22 17:08:31 GMT 49.607254 -1.993874 28,000 96 514 0
2018-06-22 17:08:28 GMT 49.607803 -2.001463 28,000 96 514 0
2018-06-22 17:08:24 GMT 49.609085 -2.019533 28,000 96 514 0
2018-06-22 17:08:21 GMT 49.609509 -2.025790 27,975 96 513 0
2018-06-22 17:08:18 GMT 49.610348 -2.037741 28,000 96 514 0
2018-06-22 17:08:15 GMT 49.611137 -2.049321 28,000 96 514 0
2018-06-22 17:08:11 GMT 49.612106 -2.062972 28,000 96 514 0
2018-06-22 17:08:08 GMT 49.613094 -2.077529 28,000 96 514 0
2018-06-22 17:08:04 GMT 49.613884 -2.088442 27,975 96 514 0
2018-06-22 17:08:00 GMT 49.614944 -2.104026 28,000 96 514 0
2018-06-22 17:07:57 GMT 49.615631 -2.113639 28,000 96 513 0
2018-06-22 17:07:54 GMT 49.616364 -2.124698 28,000 96 513 0
2018-06-22 17:07:50 GMT 49.617378 -2.139365 28,000 96 513 0
2018-06-22 17:07:47 GMT 49.618259 -2.152207 28,000 96 513 0
2018-06-22 17:07:44 GMT 49.619190 -2.165643 28,000 96 513 0
2018-06-22 17:07:39 GMT 49.619934 -2.176739 28,000 96 513 0
2018-06-22 17:07:36 GMT 49.620960 -2.191401 28,000 96 513 0
2018-06-22 17:07:33 GMT 49.621521 -2.199567 28,000 96 513 0
2018-06-22 17:07:29 GMT 49.622543 -2.214757 28,000 96 513 0
2018-06-22 17:07:26 GMT 49.623383 -2.226439 28,000 96 513 0
2018-06-22 17:07:22 GMT 49.624557 -2.244102 28,000 96 513 0
2018-06-22 17:07:18 GMT 49.625618 -2.259175 28,000 96 513 0
2018-06-22 17:07:15 GMT 49.626205 -2.268099 28,000 95 513 0
2018-06-22 17:07:11 GMT 49.627075 -2.280747 28,000 95 513 0
2018-06-22 17:07:08 GMT 49.628036 -2.295178 28,000 95 513 0
2018-06-22 17:07:05 GMT 49.628456 -2.301042 28,000 95 513 0
2018-06-22 17:07:02 GMT 49.629341 -2.314329 28,000 95 513 0
2018-06-22 17:06:57 GMT 49.630554 -2.332499 28,000 95 513 0
2018-06-22 17:06:54 GMT 49.631470 -2.346087 28,000 95 513 0
2018-06-22 17:06:51 GMT 49.631973 -2.353604 28,000 95 513 0
2018-06-22 17:06:45 GMT 49.633530 -2.376833 28,000 95 513 0
2018-06-22 17:06:42 GMT 49.634033 -2.384322 28,000 95 513 0
2018-06-22 17:06:39 GMT 49.635040 -2.399212 28,000 95 513 0
2018-06-22 17:06:36 GMT 49.635544 -2.406512 28,000 95 513 0
2018-06-22 17:06:33 GMT 49.636463 -2.420333 28,000 95 513 0
2018-06-22 17:06:28 GMT 49.637627 -2.438148 28,000 95 513 0
2018-06-22 17:06:25 GMT 49.638512 -2.451139 28,000 95 514 0
2018-06-22 17:06:22 GMT 49.639023 -2.458933 28,000 95 514 0
2018-06-22 17:06:19 GMT 49.639629 -2.468435 28,000 95 514 0
2018-06-22 17:06:16 GMT 49.640350 -2.479007 28,000 95 514 0
2018-06-22 17:06:12 GMT 49.641399 -2.494713 28,000 95 514 0
2018-06-22 17:06:08 GMT 49.642548 -2.511966 28,000 95 514 0
2018-06-22 17:06:04 GMT 49.643166 -2.521808 28,000 95 514 0
2018-06-22 17:06:01 GMT 49.644005 -2.534501 28,000 95 514 0
2018-06-22 17:05:58 GMT 49.644653 -2.543913 28,000 95 514 0
2018-06-22 17:05:55 GMT 49.645477 -2.556490 28,000 95 515 0
2018-06-22 17:05:52 GMT 49.646576 -2.573186 28,000 95 515 0
2018-06-22 17:05:47 GMT 49.647354 -2.585647 27,975 95 515 0
2018-06-22 17:05:44 GMT 49.648148 -2.597747 28,000 95 515 0
2018-06-22 17:05:41 GMT 49.648754 -2.606878 27,975 95 514 0
2018-06-22 17:05:38 GMT 49.649414 -2.616770 27,975 95 515 0
2018-06-22 17:05:35 GMT 49.650421 -2.632310 28,000 95 515 0
2018-06-22 17:05:30 GMT 49.651451 -2.648076 27,975 95 514 0
2018-06-22 17:05:26 GMT 49.652435 -2.663317 28,000 95 514 0
2018-06-22 17:05:22 GMT 49.653221 -2.675987 28,000 95 514 0
2018-06-22 17:05:18 GMT 49.654449 -2.694903 28,000 95 514 0
2018-06-22 17:05:15 GMT 49.655037 -2.704196 28,000 95 513 0
2018-06-22 17:05:12 GMT 49.655735 -2.715256 28,000 95 513 0
2018-06-22 17:05:08 GMT 49.656528 -2.727876 28,000 95 513 0
2018-06-22 17:05:05 GMT 49.657227 -2.739085 28,000 95 512 0
2018-06-22 17:05:01 GMT 49.658295 -2.755978 27,975 95 512 0
2018-06-22 17:04:57 GMT 49.659088 -2.768629 28,000 95 512 0
2018-06-22 17:04:54 GMT 49.659851 -2.781203 28,000 95 512 0
2018-06-22 17:04:51 GMT 49.660297 -2.788300 28,000 95 512 0
2018-06-22 17:04:48 GMT 49.661041 -2.800549 28,000 95 512 0
2018-06-22 17:04:45 GMT 49.661591 -2.809537 28,000 95 511 0
2018-06-22 17:04:42 GMT 49.662437 -2.823932 28,000 95 511 0
2018-06-22 17:04:39 GMT 49.663090 -2.834844 28,000 95 511 0
2018-06-22 17:04:34 GMT 49.664200 -2.853265 28,000 94 510 0
2018-06-22 17:04:31 GMT 49.664951 -2.866318 28,000 95 510 0
2018-06-22 17:04:28 GMT 49.665390 -2.874081 27,975 94 510 0
2018-06-22 17:04:24 GMT 49.666306 -2.890488 28,000 94 510 0
2018-06-22 17:04:20 GMT 49.667049 -2.904251 28,000 94 510 0
2018-06-22 17:04:16 GMT 49.667679 -2.916147 28,000 94 510 0
2018-06-22 17:04:13 GMT 49.668182 -2.925471 28,000 94 510 0
2018-06-22 17:04:10 GMT 49.668915 -2.939276 28,000 94 510 0
2018-06-22 17:04:07 GMT 49.669510 -2.950407 28,000 98 512 0
2018-06-22 17:04:03 GMT 49.670151 -2.963345 28,000 94 510 0
2018-06-22 17:04:00 GMT 49.670746 -2.975127 28,000 94 510 0
2018-06-22 17:03:57 GMT 49.671204 -2.983366 28,000 94 509 0
2018-06-22 17:03:54 GMT 49.671936 -2.997172 28,000 94 509 0
2018-06-22 17:03:51 GMT 49.672485 -3.008013 28,000 95 509 0
2018-06-22 17:03:48 GMT 49.672943 -3.015964 28,000 95 510 0
2018-06-22 17:03:45 GMT 49.673859 -3.031937 28,000 95 510 0
2018-06-22 17:03:42 GMT 49.674500 -3.042851 27,975 95 510 0
2018-06-22 17:03:37 GMT 49.675426 -3.056500 28,000 97 511 0
2018-06-22 17:03:33 GMT 49.676731 -3.074093 28,000 98 513 0
2018-06-22 17:03:30 GMT 49.677841 -3.087158 28,000 97 511 0
2018-06-22 17:03:26 GMT 49.678825 -3.097922 28,000 98 511 0
2018-06-22 17:03:22 GMT 49.680542 -3.115419 28,000 98 513 0
2018-06-22 17:03:17 GMT 49.681992 -3.130361 28,000 98 511 0
2018-06-22 17:03:14 GMT 49.682785 -3.138404 28,000 98 512 0
2018-06-22 17:03:11 GMT 49.684158 -3.152570 28,000 98 512 0
2018-06-22 17:03:07 GMT 49.685577 -3.167170 28,000 98 512 0
2018-06-22 17:03:03 GMT 49.686859 -3.180614 28,000 98 512 0
2018-06-22 17:02:59 GMT 49.688416 -3.196371 28,000 98 512 0
2018-06-22 17:02:56 GMT 49.689301 -3.205558 28,000 98 512 0
2018-06-22 17:02:51 GMT 49.691208 -3.225644 28,000 98 512 0
2018-06-22 17:02:48 GMT 49.692032 -3.234028 28,000 98 513 0
2018-06-22 17:02:45 GMT 49.692837 -3.242303 27,975 98 513 0
2018-06-22 17:02:41 GMT 49.694466 -3.259079 27,975 98 513 0
2018-06-22 17:02:38 GMT 49.695694 -3.271830 28,000 98 513 0
2018-06-22 17:02:35 GMT 49.696377 -3.279196 27,975 98 513 0
2018-06-22 17:02:32 GMT 49.697433 -3.289972 27,975 98 513 0
2018-06-22 17:02:28 GMT 49.699356 -3.310137 27,975 98 513 0
2018-06-22 17:02:25 GMT 49.699951 -3.316426 27,975 98 513 0
2018-06-22 17:02:20 GMT 49.701916 -3.337097 27,975 98 513 0
2018-06-22 17:02:17 GMT 49.702568 -3.343852 28,000 98 513 0
2018-06-22 17:02:14 GMT 49.703888 -3.357697 28,000 98 513 0
2018-06-22 17:02:09 GMT 49.705444 -3.374321 28,000 98 513 0
2018-06-22 17:02:05 GMT 49.706909 -3.389644 28,000 98 513 0
2018-06-22 17:02:01 GMT 49.708420 -3.405834 28,000 98 513 0
2018-06-22 17:01:57 GMT 49.709976 -3.422097 28,000 98 513 0
2018-06-22 17:01:53 GMT 49.710754 -3.430336 28,000 98 513 0
2018-06-22 17:01:49 GMT 49.712528 -3.449484 28,000 98 513 0
2018-06-22 17:01:44 GMT 49.714252 -3.467820 28,000 98 513 0
2018-06-22 17:01:40 GMT 49.715424 -3.480064 28,000 98 514 0
2018-06-22 17:01:37 GMT 49.716339 -3.489677 28,000 98 514 0
2018-06-22 17:01:33 GMT 49.717621 -3.503193 28,000 98 514 0
2018-06-22 17:01:28 GMT 49.719746 -3.525795 28,000 98 514 0
2018-06-22 17:01:23 GMT 49.721237 -3.541862 28,000 98 514 0
2018-06-22 17:01:18 GMT 49.723003 -3.560758 28,000 98 514 0
2018-06-22 17:01:15 GMT 49.724350 -3.575255 28,000 98 515 0
2018-06-22 17:01:12 GMT 49.725357 -3.585952 28,000 98 514 0
2018-06-22 17:01:09 GMT 49.726124 -3.594162 28,000 98 514 0
2018-06-22 17:01:06 GMT 49.726868 -3.602431 28,000 98 515 0
2018-06-22 17:01:02 GMT 49.728424 -3.618766 28,000 98 515 0
2018-06-22 17:00:59 GMT 49.729706 -3.632986 27,975 98 515 0
2018-06-22 17:00:55 GMT 49.730778 -3.644343 27,975 98 515 0
2018-06-22 17:00:52 GMT 49.731583 -3.653388 28,000 98 515 0
2018-06-22 17:00:49 GMT 49.732967 -3.668320 27,975 98 515 0
2018-06-22 17:00:45 GMT 49.734035 -3.680049 28,000 98 515 0
2018-06-22 17:00:42 GMT 49.735016 -3.690293 27,975 98 515 0
2018-06-22 17:00:34 GMT 49.737530 -3.717759 28,000 98 514 0
2018-06-22 17:00:31 GMT 49.738598 -3.729413 28,000 98 514 0
2018-06-22 17:00:24 GMT 49.740974 -3.755543 28,000 98 514 0
2018-06-22 17:00:20 GMT 49.742340 -3.770407 28,000 98 514 0
2018-06-22 17:00:15 GMT 49.744400 -3.792668 28,000 98 514 0
2018-06-22 17:00:11 GMT 49.745350 -3.803125 28,000 98 515 0
2018-06-22 17:00:04 GMT 49.747650 -3.828446 27,975 98 515 0
2018-06-22 17:00:01 GMT 49.748608 -3.839054 28,000 98 516 0
2018-06-22 16:59:58 GMT 49.749939 -3.853961 28,000 97 515 0
2018-06-22 16:59:54 GMT 49.750889 -3.863996 28,000 97 515 0
2018-06-22 16:59:51 GMT 49.752365 -3.880631 28,000 97 515 0
2018-06-22 16:59:44 GMT 49.754150 -3.900363 28,000 97 515 0
2018-06-22 16:59:41 GMT 49.755219 -3.911801 28,000 97 515 0
2018-06-22 16:59:38 GMT 49.756104 -3.921525 28,000 97 515 0
2018-06-22 16:59:33 GMT 49.757858 -3.941128 28,000 97 515 0
2018-06-22 16:59:30 GMT 49.758911 -3.952621 28,000 97 516 0
2018-06-22 16:59:27 GMT 49.759918 -3.963968 28,000 97 516 0
2018-06-22 16:59:24 GMT 49.761086 -3.976754 28,000 97 516 0
2018-06-22 16:59:21 GMT 49.761612 -3.982833 28,000 97 516 0
2018-06-22 16:59:18 GMT 49.762848 -3.996638 28,000 97 516 0
2018-06-22 16:59:12 GMT 49.764862 -4.018900 28,000 97 516 0
2018-06-22 16:59:09 GMT 49.765785 -4.029236 28,000 97 516 0
2018-06-22 16:59:06 GMT 49.766808 -4.040371 28,000 97 516 0
2018-06-22 16:59:01 GMT 49.768532 -4.059151 28,000 97 516 0
2018-06-22 16:58:58 GMT 49.769394 -4.068772 28,000 97 518 0
2018-06-22 16:58:52 GMT 49.771324 -4.090626 28,000 97 518 0
2018-06-22 16:58:48 GMT 49.772644 -4.105562 27,975 97 517 0
2018-06-22 16:58:41 GMT 49.774887 -4.129847 28,000 97 517 0
2018-06-22 16:58:38 GMT 49.776073 -4.142959 27,975 97 517 0
2018-06-22 16:58:31 GMT 49.778446 -4.169683 28,000 97 517 0
2018-06-22 16:58:28 GMT 49.779427 -4.180595 28,000 97 517 0
2018-06-22 16:58:25 GMT 49.779984 -4.187276 27,975 97 517 0
2018-06-22 16:58:22 GMT 49.781296 -4.202271 27,975 97 517 0
2018-06-22 16:58:19 GMT 49.782166 -4.212100 27,975 97 517 0
2018-06-22 16:58:16 GMT 49.783264 -4.225183 27,975 97 517 0
2018-06-22 16:58:09 GMT 49.785244 -4.248665 27,975 97 516 0
2018-06-22 16:58:04 GMT 49.786781 -4.268263 28,000 96 516 0
2018-06-22 16:58:01 GMT 49.787571 -4.278804 28,000 96 516 0
2018-06-22 16:57:58 GMT 49.788345 -4.289077 28,000 96 516 -64
2018-06-22 16:57:55 GMT 49.789062 -4.298401 28,000 107 520 0
2018-06-22 16:57:50 GMT 49.790588 -4.318205 28,000 98 516 0
2018-06-22 16:57:47 GMT 49.791389 -4.326757 28,000 100 518 0
2018-06-22 16:57:43 GMT 49.793427 -4.344876 28,000 101 518 0
2018-06-22 16:57:37 GMT 49.796089 -4.362760 28,000 106 519 0
2018-06-22 16:57:34 GMT 49.798653 -4.376864 27,975 108 520 0
2018-06-22 16:57:28 GMT 49.803818 -4.399282 28,000 112 521 0
2018-06-22 16:57:25 GMT 49.805832 -4.406891 28,000 116 522 0
2018-06-22 16:57:17 GMT 49.814484 -4.434429 28,000 118 523 0
2018-06-22 16:57:07 GMT 49.825974 -4.465726 28,000 119 524 0
2018-06-22 16:57:04 GMT 49.830139 -4.476929 28,000 119 523 0
2018-06-22 16:56:56 GMT 49.839058 -4.500831 28,000 119 524 0
2018-06-22 16:56:47 GMT 49.851906 -4.535498 27,975 119 524 0
2018-06-22 16:56:35 GMT 49.865662 -4.572698 28,000 119 523 0
2018-06-22 16:56:28 GMT 49.873947 -4.594887 28,000 119 523 0
2018-06-22 16:56:25 GMT 49.876419 -4.601537 28,000 119 523 0
2018-06-22 16:56:21 GMT 49.881981 -4.616633 28,000 119 523 0
2018-06-22 16:56:16 GMT 49.887955 -4.632689 28,000 119 522 0
2018-06-22 16:56:13 GMT 49.892670 -4.645410 28,000 119 522 0
2018-06-22 16:56:09 GMT 49.895481 -4.653155 28,000 119 522 0
2018-06-22 16:56:06 GMT 49.900269 -4.666009 28,000 119 522 0
2018-06-22 16:56:02 GMT 49.904697 -4.677875 28,000 119 520 0
2018-06-22 16:55:59 GMT 49.908886 -4.689306 28,000 119 520 0
2018-06-22 16:55:53 GMT 49.914505 -4.704461 28,000 119 520 0
2018-06-22 16:55:48 GMT 49.921314 -4.722859 28,000 119 521 0
2018-06-22 16:55:45 GMT 49.924248 -4.730876 28,000 119 521 0
2018-06-22 16:55:42 GMT 49.929749 -4.745732 28,000 119 521 0
2018-06-22 16:55:38 GMT 49.934723 -4.759159 28,000 119 521 0
2018-06-22 16:55:33 GMT 49.939194 -4.771333 28,000 119 522 0
2018-06-22 16:55:28 GMT 49.945358 -4.788088 27,975 119 522 0
2018-06-22 16:55:24 GMT 49.950691 -4.802584 28,000 119 522 0
2018-06-22 16:55:13 GMT 49.963028 -4.836225 28,000 119 522 0
2018-06-22 16:55:08 GMT 49.969311 -4.853210 28,000 119 523 0
2018-06-22 16:55:01 GMT 49.977081 -4.874316 28,000 119 523 0
2018-06-22 16:54:58 GMT 49.981796 -4.887109 28,000 119 523 0
2018-06-22 16:54:53 GMT 49.987839 -4.903391 28,000 119 524 0
2018-06-22 16:54:50 GMT 49.991611 -4.913561 28,000 120 523 0
2018-06-22 16:54:47 GMT 49.994728 -4.921875 28,000 119 524 0
2018-06-22 16:54:43 GMT 49.999786 -4.935463 28,000 120 523 0
2018-06-22 16:54:39 GMT 50.004684 -4.948618 27,975 120 523 0
2018-06-22 16:54:35 GMT 50.009953 -4.962628 27,975 120 523 0
2018-06-22 16:54:32 GMT 50.012466 -4.969290 27,975 120 523 0
2018-06-22 16:54:29 GMT 50.017448 -4.982597 27,975 120 523 0
2018-06-22 16:54:20 GMT 50.026611 -5.006874 28,000 119 522 0
2018-06-22 16:54:17 GMT 50.030762 -5.018005 28,000 113 520 0
2018-06-22 16:54:12 GMT 50.036957 -5.034846 27,975 118 522 0
2018-06-22 16:54:08 GMT 50.041470 -5.047550 27,975 116 521 0
2018-06-22 16:54:01 GMT 50.048996 -5.071347 28,000 114 521 -64
2018-06-22 16:53:57 GMT 50.052361 -5.083329 28,000 112 520 0
2018-06-22 16:53:50 GMT 50.058975 -5.108064 28,000 112 519 0
2018-06-22 16:53:47 GMT 50.061577 -5.117922 28,000 112 518 0
2018-06-22 16:53:41 GMT 50.067398 -5.139968 28,000 112 518 0
2018-06-22 16:53:38 GMT 50.069641 -5.148468 28,000 112 518 0
2018-06-22 16:53:35 GMT 50.072426 -5.159195 28,000 112 518 0
2018-06-22 16:53:32 GMT 50.076241 -5.173670 28,000 112 518 0
2018-06-22 16:53:29 GMT 50.078110 -5.180776 28,000 112 518 0
2018-06-22 16:53:26 GMT 50.080307 -5.189161 28,000 112 518 0
2018-06-22 16:53:19 GMT 50.087929 -5.217986 28,000 112 519 0
2018-06-22 16:53:14 GMT 50.091930 -5.233278 28,000 112 519 0
2018-06-22 16:53:11 GMT 50.094723 -5.243967 28,000 112 519 0
2018-06-22 16:53:08 GMT 50.097061 -5.252766 28,000 112 519 0
2018-06-22 16:53:05 GMT 50.099892 -5.263639 28,000 112 519 0
2018-06-22 16:53:01 GMT 50.104404 -5.280712 28,000 112 520 0
2018-06-22 16:52:58 GMT 50.106037 -5.286948 27,975 112 520 0
2018-06-22 16:52:55 GMT 50.109695 -5.300976 28,000 112 520 0
2018-06-22 16:52:48 GMT 50.116554 -5.327107 27,975 112 520 0
2018-06-22 16:52:44 GMT 50.119255 -5.337425 28,000 112 521 0
2018-06-22 16:52:37 GMT 50.125214 -5.360215 28,000 112 521 0
2018-06-22 16:52:34 GMT 50.128895 -5.374393 28,000 112 521 0
2018-06-22 16:52:27 GMT 50.134571 -5.396143 28,000 111 520 0
2018-06-22 16:52:19 GMT 50.141602 -5.423198 28,000 111 520 0
2018-06-22 16:52:16 GMT 50.144161 -5.433036 28,000 111 520 0
2018-06-22 16:52:12 GMT 50.147980 -5.447734 28,000 111 520 0
2018-06-22 16:52:09 GMT 50.150635 -5.457978 28,000 111 520 0
2018-06-22 16:52:05 GMT 50.153778 -5.470180 28,000 111 520 0
2018-06-22 16:51:59 GMT 50.160736 -5.497024 28,000 111 520 0
2018-06-22 16:51:55 GMT 50.162922 -5.505412 28,000 111 520 0
2018-06-22 16:51:48 GMT 50.169479 -5.530749 28,000 111 520 0
2018-06-22 16:51:44 GMT 50.172421 -5.542083 27,975 111 520 0
2018-06-22 16:51:38 GMT 50.178497 -5.565587 27,975 111 519 0
2018-06-22 16:51:34 GMT 50.181915 -5.578828 28,000 111 520 0
2018-06-22 16:51:30 GMT 50.185776 -5.593703 28,000 111 520 0
2018-06-22 16:51:27 GMT 50.188522 -5.604328 28,000 111 519 0
2018-06-22 16:51:24 GMT 50.190994 -5.614086 28,000 111 520 0
2018-06-22 16:51:21 GMT 50.195023 -5.629554 28,000 111 520 0
2018-06-22 16:51:17 GMT 50.197266 -5.638227 28,000 111 520 0
2018-06-22 16:51:14 GMT 50.200165 -5.649571 28,000 111 520 0
2018-06-22 16:51:07 GMT 50.206146 -5.672993 28,000 111 519 0
2018-06-22 16:51:03 GMT 50.210079 -5.688394 28,000 111 519 0
2018-06-22 16:50:59 GMT 50.214111 -5.704145 28,000 111 518 0
2018-06-22 16:50:56 GMT 50.215294 -5.708734 28,000 111 518 0
2018-06-22 16:50:52 GMT 50.219017 -5.723432 28,000 111 518 0
2018-06-22 16:50:47 GMT 50.224651 -5.745478 28,000 111 518 0
2018-06-22 16:50:42 GMT 50.227936 -5.758354 28,000 111 517 0
2018-06-22 16:50:35 GMT 50.234241 -5.783040 28,000 111 517 0
2018-06-22 16:50:32 GMT 50.237732 -5.796806 28,000 111 518 0
2018-06-22 16:50:28 GMT 50.240662 -5.808443 28,000 111 518 0
2018-06-22 16:50:25 GMT 50.242859 -5.817044 28,000 111 518 0
2018-06-22 16:50:22 GMT 50.246578 -5.831513 28,000 111 518 0
2018-06-22 16:50:14 GMT 50.252609 -5.855424 27,975 111 518 0
2018-06-22 16:50:11 GMT 50.255814 -5.868073 27,975 111 519 0
2018-06-22 16:50:05 GMT 50.261078 -5.888889 28,000 111 519 0
2018-06-22 16:50:00 GMT 50.265011 -5.904409 28,000 111 519 0
2018-06-22 16:49:54 GMT 50.270187 -5.925028 28,000 103 518 0
2018-06-22 16:49:50 GMT 50.274353 -5.941580 28,000 111 518 0
2018-06-22 16:49:44 GMT 50.279709 -5.962974 28,000 110 518 0
2018-06-22 16:49:40 GMT 50.282867 -5.976057 28,000 110 518 0
2018-06-22 16:49:33 GMT 50.288288 -5.999500 28,000 108 518 0
2018-06-22 16:49:30 GMT 50.291176 -6.013530 28,000 105 518 0
2018-06-22 16:49:22 GMT 50.295090 -6.037999 27,975 100 517 0
2018-06-22 16:49:18 GMT 50.296967 -6.055346 28,000 95 516 0
2018-06-22 16:49:14 GMT 50.298203 -6.071681 28,000 88 514 0
2018-06-22 16:49:09 GMT 50.298809 -6.091028 28,000 89 514 0
2018-06-22 16:48:58 GMT 50.297791 -6.127625 27,975 82 512 0
2018-06-22 16:48:52 GMT 50.295456 -6.151973 28,000 79 508 0
2018-06-22 16:48:47 GMT 50.293762 -6.166655 28,000 79 509 0
2018-06-22 16:48:40 GMT 50.290512 -6.193542 28,000 79 509 0
2018-06-22 16:48:36 GMT 50.288986 -6.206162 28,000 79 508 0
2018-06-22 16:48:32 GMT 50.286846 -6.223903 28,000 79 507 0
2018-06-22 16:48:29 GMT 50.285587 -6.234222 28,000 79 507 0
2018-06-22 16:48:26 GMT 50.284561 -6.242536 28,000 79 507 0
2018-06-22 16:48:21 GMT 50.282097 -6.263098 28,000 79 507 0
2018-06-22 16:48:16 GMT 50.279629 -6.283215 28,000 79 507 0
2018-06-22 16:48:10 GMT 50.277374 -6.301743 28,000 79 507 0
2018-06-22 16:48:05 GMT 50.275223 -6.319452 28,000 79 507 0
2018-06-22 16:47:52 GMT 50.269043 -6.370408 28,000 79 507 0
2018-06-22 16:47:44 GMT 50.265930 -6.395922 28,000 79 506 0
2018-06-22 16:47:41 GMT 50.264648 -6.406403 28,000 79 508 0
2018-06-22 16:47:34 GMT 50.261490 -6.432061 28,000 79 507 0
2018-06-22 16:47:30 GMT 50.260071 -6.443698 28,000 79 508 0
2018-06-22 16:47:21 GMT 50.255173 -6.483596 28,000 79 508 0
2018-06-22 16:47:17 GMT 50.254307 -6.490767 28,000 79 508 0
2018-06-22 16:47:13 GMT 50.252335 -6.506508 28,000 79 508 0
2018-06-22 16:47:10 GMT 50.250916 -6.518290 28,000 79 508 0
2018-06-22 16:47:02 GMT 50.247711 -6.544310 28,000 79 508 0
2018-06-22 16:46:59 GMT 50.246338 -6.555224 28,000 79 508 0
2018-06-22 16:46:50 GMT 50.242107 -6.589570 27,975 79 509 0
2018-06-22 16:46:42 GMT 50.238476 -6.618595 27,975 79 509 0
2018-06-22 16:46:39 GMT 50.237137 -6.629382 27,975 79 509 0
2018-06-22 16:46:32 GMT 50.233521 -6.658582 28,000 79 509 0
2018-06-22 16:46:29 GMT 50.232613 -6.665658 28,000 78 508 0
2018-06-22 16:46:21 GMT 50.228989 -6.694794 28,000 78 508 0
2018-06-22 16:46:18 GMT 50.227661 -6.705635 28,000 78 508 0
2018-06-22 16:46:11 GMT 50.224651 -6.729646 28,000 78 508 0
2018-06-22 16:46:08 GMT 50.222992 -6.742931 28,000 78 508 0
2018-06-22 16:46:00 GMT 50.219833 -6.768012 28,000 78 508 0
2018-06-22 16:45:56 GMT 50.218132 -6.781385 28,000 78 508 0
2018-06-22 16:45:47 GMT 50.213791 -6.816077 28,000 78 508 0
2018-06-22 16:45:40 GMT 50.210266 -6.843814 28,000 78 508 0
2018-06-22 16:45:37 GMT 50.209244 -6.851980 28,000 78 508 0
2018-06-22 16:45:27 GMT 50.204399 -6.890432 28,000 78 508 0
2018-06-22 16:45:21 GMT 50.202305 -6.906763 28,000 78 508 0
2018-06-22 16:45:18 GMT 50.200745 -6.919074 28,000 78 508 0
2018-06-22 16:45:15 GMT 50.199558 -6.928587 28,000 78 508 0
2018-06-22 16:45:08 GMT 50.196121 -6.955574 28,000 78 508 0
2018-06-22 16:45:05 GMT 50.194702 -6.966488 28,000 78 508 0
2018-06-22 16:44:58 GMT 50.191460 -6.991981 28,000 78 508 0
2018-06-22 16:44:54 GMT 50.189968 -7.003858 28,000 78 508 0
2018-06-22 16:44:48 GMT 50.186665 -7.029691 28,000 78 508 0
2018-06-22 16:44:44 GMT 50.185410 -7.039562 28,000 78 508 0
2018-06-22 16:44:35 GMT 50.180752 -7.075715 28,000 78 508 0
2018-06-22 16:44:27 GMT 50.176750 -7.106818 27,975 78 508 0
2018-06-22 16:44:24 GMT 50.175957 -7.113054 27,975 78 508 0
2018-06-22 16:44:14 GMT 50.171082 -7.151088 28,000 78 508 0
2018-06-22 16:44:04 GMT 50.166321 -7.187657 27,975 78 509 0
2018-06-22 16:43:55 GMT 50.162384 -7.218018 27,975 78 508 0
2018-06-22 16:43:52 GMT 50.161106 -7.227816 27,975 78 508 0
2018-06-22 16:43:43 GMT 50.156731 -7.261517 28,000 78 508 0
2018-06-22 16:43:32 GMT 50.151611 -7.300786 28,000 78 507 0
2018-06-22 16:43:23 GMT 50.147186 -7.334339 28,000 78 507 0
2018-06-22 16:43:13 GMT 50.142975 -7.366478 28,000 78 507 0
2018-06-22 16:43:10 GMT 50.141281 -7.379415 28,000 78 507 0
2018-06-22 16:43:02 GMT 50.137894 -7.405219 28,000 78 507 0
2018-06-22 16:42:52 GMT 50.132477 -7.446281 28,000 78 507 0
2018-06-22 16:42:41 GMT 50.127777 -7.481979 28,000 78 507 0
2018-06-22 16:42:31 GMT 50.122604 -7.520937 28,000 78 507 0
2018-06-22 16:42:20 GMT 50.118118 -7.554691 28,000 78 508 0
2018-06-22 16:42:15 GMT 50.115345 -7.575667 28,000 78 508 0
2018-06-22 16:42:09 GMT 50.112553 -7.596675 28,000 78 508 0
2018-06-22 16:42:00 GMT 50.107944 -7.631044 28,000 78 508 0
2018-06-22 16:41:49 GMT 50.103104 -7.667517 28,000 78 508 0
2018-06-22 16:41:38 GMT 50.098076 -7.705053 28,000 78 507 0
2018-06-22 16:41:26 GMT 50.091980 -7.750276 28,000 78 506 0
2018-06-22 16:41:17 GMT 50.087677 -7.782368 28,000 78 506 0
2018-06-22 16:41:08 GMT 50.083366 -7.814174 27,975 78 505 0
2018-06-22 16:40:56 GMT 50.077881 -7.854502 28,000 78 506 0
2018-06-22 16:40:47 GMT 50.073395 -7.887678 28,000 78 506 0
2018-06-22 16:40:36 GMT 50.068001 -7.927081 28,000 78 505 0
2018-06-22 16:40:25 GMT 50.062958 -7.963787 28,000 78 505 0
2018-06-22 16:40:16 GMT 50.058086 -7.999680 28,000 78 505 0
2018-06-22 16:40:03 GMT 50.051804 -8.045333 28,000 78 505 0
2018-06-22 16:39:54 GMT 50.047752 -8.074803 28,000 77 505 0
2018-06-22 16:39:43 GMT 50.041561 -8.119787 28,000 77 505 0
2018-06-22 16:39:32 GMT 50.037094 -8.152000 28,000 77 505 0
2018-06-22 16:39:24 GMT 50.032761 -8.183553 28,000 77 506 0
2018-06-22 16:39:13 GMT 50.027344 -8.222327 28,000 77 506 0
2018-06-22 16:39:03 GMT 50.022381 -8.257933 28,000 77 506 0
2018-06-22 16:38:52 GMT 50.017227 -8.294750 28,000 77 506 0
2018-06-22 16:38:41 GMT 50.011814 -8.333575 28,000 77 505 0
2018-06-22 16:38:31 GMT 50.006508 -8.371434 28,000 77 505 0
2018-06-22 16:38:21 GMT 50.001663 -8.405697 28,000 77 504 0
2018-06-22 16:38:11 GMT 49.996498 -8.442177 28,000 77 504 0
2018-06-22 16:38:00 GMT 49.991043 -8.480867 28,000 77 503 0
2018-06-22 16:37:49 GMT 49.985962 -8.516573 28,000 77 503 0
2018-06-22 16:37:39 GMT 49.980927 -8.551845 28,000 77 503 0
2018-06-22 16:37:28 GMT 49.974884 -8.594272 28,000 77 503 0
2018-06-22 16:37:18 GMT 49.969940 -8.628893 28,000 77 503 0
2018-06-22 16:37:11 GMT 49.966518 -8.652698 28,000 77 503 0
2018-06-22 16:37:08 GMT 49.965309 -8.661235 28,000 77 503 0
2018-06-22 16:36:57 GMT 49.959778 -8.700015 27,975 77 504 0
2018-06-22 16:36:47 GMT 49.953762 -8.741554 28,000 77 504 0
2018-06-22 16:36:37 GMT 49.949528 -8.771173 28,000 77 504 -64
2018-06-22 16:36:26 GMT 49.944122 -8.808361 28,000 77 504 0
2018-06-22 16:36:16 GMT 49.938675 -8.845946 28,000 77 504 0
2018-06-22 16:36:12 GMT 49.936539 -8.860771 28,000 77 504 0
2018-06-22 16:36:06 GMT 49.933514 -8.881704 28,000 77 504 64
2018-06-22 16:36:01 GMT 49.931324 -8.896773 28,000 77 505 0
2018-06-22 16:35:55 GMT 49.928055 -8.919236 28,000 77 505 0
2018-06-22 16:35:52 GMT 49.925583 -8.935932 28,000 77 505 0
2018-06-22 16:35:44 GMT 49.922562 -8.956676 28,000 77 505 0
2018-06-22 16:35:41 GMT 49.920666 -8.969817 28,000 77 505 0
2018-06-22 16:35:34 GMT 49.917206 -8.993466 28,000 77 505 0
2018-06-22 16:35:31 GMT 49.915451 -9.005226 28,000 77 504 0
2018-06-22 16:35:24 GMT 49.911728 -9.030465 27,975 77 504 64
2018-06-22 16:35:20 GMT 49.910004 -9.042416 27,975 77 504 0
2018-06-22 16:35:13 GMT 49.906586 -9.065528 28,000 77 504 0
2018-06-22 16:35:10 GMT 49.904480 -9.079767 28,000 77 504 0
2018-06-22 16:35:04 GMT 49.900864 -9.104341 28,000 77 503 -64
2018-06-22 16:35:00 GMT 49.899353 -9.114532 28,000 77 503 -64
2018-06-22 16:34:53 GMT 49.895851 -9.137953 28,000 77 503 128
2018-06-22 16:34:42 GMT 49.890358 -9.175366 28,000 77 503 -64
2018-06-22 16:34:34 GMT 49.886307 -9.202495 28,000 77 504 64
2018-06-22 16:34:30 GMT 49.884201 -9.216951 28,000 77 504 0
2018-06-22 16:34:24 GMT 49.880722 -9.240467 28,000 77 504 0
2018-06-22 16:34:21 GMT 49.879002 -9.251899 28,000 77 504 0
2018-06-22 16:34:14 GMT 49.875412 -9.276147 28,000 77 504 0
2018-06-22 16:34:09 GMT 49.872856 -9.293394 28,000 76 505 0
2018-06-22 16:34:04 GMT 49.870201 -9.311136 28,000 76 506 0
2018-06-22 16:34:01 GMT 49.868618 -9.321602 28,000 76 506 0
2018-06-22 16:33:54 GMT 49.864838 -9.346835 27,975 76 506 0
2018-06-22 16:33:50 GMT 49.862640 -9.361580 27,975 76 506 0
2018-06-22 16:33:44 GMT 49.859028 -9.385516 28,000 76 505 0
2018-06-22 16:33:40 GMT 49.857559 -9.395118 28,000 76 505 0
2018-06-22 16:33:33 GMT 49.853722 -9.420776 28,000 76 505 0
2018-06-22 16:33:29 GMT 49.852093 -9.431614 28,000 76 505 0
2018-06-22 16:33:23 GMT 49.848415 -9.455962 28,000 76 504 0
2018-06-22 16:33:19 GMT 49.846043 -9.471848 28,000 76 504 64
2018-06-22 16:33:12 GMT 49.842785 -9.493153 27,975 76 504 0
2018-06-22 16:33:07 GMT 49.839943 -9.512082 28,000 76 503 0
2018-06-22 16:33:02 GMT 49.837280 -9.529483 28,000 76 503 0
2018-06-22 16:32:57 GMT 49.834625 -9.546902 28,000 76 502 0
2018-06-22 16:32:52 GMT 49.832062 -9.564032 28,000 76 502 0
2018-06-22 16:32:48 GMT 49.830120 -9.576663 28,000 76 502 0
2018-06-22 16:32:45 GMT 49.828537 -9.587017 28,000 76 502 0
2018-06-22 16:32:42 GMT 49.826797 -9.598437 28,000 76 502 0
2018-06-22 16:32:36 GMT 49.823730 -9.618458 28,000 76 501 0
2018-06-22 16:32:32 GMT 49.821396 -9.633998 28,000 76 501 0
2018-06-22 16:32:27 GMT 49.819042 -9.649337 28,000 76 501 0
2018-06-22 16:32:22 GMT 49.815830 -9.670344 27,975 76 501 0
2018-06-22 16:32:15 GMT 49.812698 -9.690809 27,975 76 500 0
2018-06-22 16:32:11 GMT 49.810455 -9.705337 27,975 76 500 0
2018-06-22 16:32:03 GMT 49.806152 -9.733381 28,000 76 500 0
2018-06-22 16:32:00 GMT 49.804916 -9.741621 28,000 76 499 0
2018-06-22 16:31:55 GMT 49.802032 -9.760341 28,000 76 499 0
2018-06-22 16:31:50 GMT 49.799442 -9.777312 28,000 76 499 0
2018-06-22 16:31:44 GMT 49.795906 -9.800102 28,000 76 498 0
2018-06-22 16:31:41 GMT 49.793884 -9.813176 28,000 76 498 0
We lost coverage of the aircraft here for a total of 114 minutes
2018-06-22 14:37:14 GMT 48.044098 -9.174007 35,975 272 474 0
2018-06-22 14:37:11 GMT 48.043819 -9.166753 35,975 274 473 0
2018-06-22 14:37:01 GMT 48.042480 -9.138084 36,000 275 474 0
2018-06-22 14:36:49 GMT 48.040001 -9.098933 36,000 277 474 0
2018-06-22 14:36:42 GMT 48.038040 -9.076149 36,000 279 474 0
2018-06-22 14:36:39 GMT 48.036697 -9.063439 36,000 280 473 0
2018-06-22 14:36:30 GMT 48.033112 -9.034987 36,000 283 474 0
2018-06-22 14:36:26 GMT 48.031631 -9.025406 36,000 289 473 0
2018-06-22 14:36:19 GMT 48.027603 -9.002266 35,975 287 474 0
2018-06-22 14:36:09 GMT 48.019135 -8.963264 35,975 290 472 0
2018-06-22 14:35:55 GMT 48.010391 -8.926529 36,000 290 471 64
2018-06-22 14:35:47 GMT 48.005878 -8.903081 36,000 283 470 0
2018-06-22 14:35:36 GMT 48.002151 -8.864594 35,975 274 469 0
2018-06-22 14:35:26 GMT 48.001129 -8.833853 36,000 273 466 0
2018-06-22 14:35:10 GMT 48.000153 -8.782654 36,000 272 465 0
2018-06-22 14:34:52 GMT 48.000320 -8.727402 36,000 270 465 0
2018-06-22 14:34:44 GMT 48.000385 -8.699482 35,975 270 466 0
2018-06-22 14:34:34 GMT 48.000366 -8.667801 36,000 270 466 0
2018-06-22 14:34:22 GMT 48.000549 -8.629005 35,975 270 467 0
2018-06-22 14:34:13 GMT 48.000618 -8.598774 36,000 270 467 0
2018-06-22 14:34:02 GMT 48.000664 -8.565322 36,000 270 468 0
2018-06-22 14:33:58 GMT 48.000664 -8.553209 36,000 270 468 0
2018-06-22 14:33:51 GMT 48.000710 -8.530813 35,975 270 468 0
2018-06-22 14:33:47 GMT 48.000732 -8.518524 36,000 270 469 0
2018-06-22 14:33:40 GMT 48.000732 -8.496002 36,000 270 469 0
2018-06-22 14:33:36 GMT 48.000755 -8.481375 36,000 270 469 0
2018-06-22 14:33:27 GMT 48.000778 -8.452950 36,000 270 468 0
2018-06-22 14:33:17 GMT 48.000824 -8.421913 36,000 270 468 0
2018-06-22 14:33:10 GMT 48.000851 -8.396513 35,975 270 468 0
2018-06-22 14:33:07 GMT 48.000851 -8.389188 35,975 270 468 0
2018-06-22 14:32:59 GMT 48.000851 -8.362427 35,975 270 468 0
2018-06-22 14:32:56 GMT 48.000851 -8.353201 35,975 270 468 0
2018-06-22 14:32:49 GMT 48.000824 -8.325783 35,975 270 468 0
2018-06-22 14:32:46 GMT 48.000851 -8.319890 35,975 270 467 0
2018-06-22 14:32:38 GMT 48.000824 -8.294403 35,975 270 466 0
2018-06-22 14:32:35 GMT 48.000824 -8.285202 36,000 270 466 0
2018-06-22 14:32:27 GMT 48.000851 -8.260169 36,000 270 466 0
2018-06-22 14:32:24 GMT 48.000824 -8.250801 36,000 270 466 0
2018-06-22 14:32:14 GMT 48.000805 -8.217140 36,000 271 467 0
2018-06-22 14:32:03 GMT 48.000778 -8.183167 36,000 271 469 0
2018-06-22 14:31:53 GMT 48.000710 -8.150306 36,000 271 469 0
2018-06-22 14:31:42 GMT 48.000431 -8.113967 36,000 271 471 0
2018-06-22 14:31:32 GMT 48.000412 -8.083740 35,975 269 473 0
2018-06-22 14:31:22 GMT 48.001175 -8.050584 35,975 267 473 0
2018-06-22 14:31:12 GMT 48.002838 -8.016380 36,000 265 473 0
2018-06-22 14:31:01 GMT 48.005367 -7.980722 36,000 263 473 0
2018-06-22 14:30:50 GMT 48.008698 -7.947166 35,975 260 474 0
2018-06-22 14:30:39 GMT 48.013187 -7.911846 36,000 258 473 0
2018-06-22 14:30:30 GMT 48.017376 -7.883183 36,000 258 473 0
2018-06-22 14:30:26 GMT 48.019379 -7.869450 36,000 258 473 0
2018-06-22 14:30:18 GMT 48.022797 -7.846298 35,975 258 473 0
2018-06-22 14:30:06 GMT 48.028828 -7.804941 36,000 258 473 0
2018-06-22 14:29:58 GMT 48.032227 -7.781616 36,000 258 472 0
2018-06-22 14:29:47 GMT 48.037537 -7.744812 36,000 258 472 0
2018-06-22 14:29:36 GMT 48.042435 -7.711029 36,000 258 472 0
2018-06-22 14:29:26 GMT 48.047310 -7.677612 36,000 258 472 0
2018-06-22 14:29:14 GMT 48.052479 -7.641695 36,000 258 472 0
2018-06-22 14:29:04 GMT 48.056946 -7.610847 35,975 258 472 0
2018-06-22 14:28:53 GMT 48.062393 -7.572679 35,975 258 472 0
2018-06-22 14:28:42 GMT 48.067375 -7.538100 36,000 258 471 0
2018-06-22 14:28:32 GMT 48.071705 -7.508028 36,000 258 471 0
2018-06-22 14:28:20 GMT 48.077591 -7.466721 36,000 258 471 0
2018-06-22 14:28:11 GMT 48.081245 -7.441125 36,000 258 471 0
2018-06-22 14:28:01 GMT 48.085716 -7.409715 36,000 258 471 0
2018-06-22 14:27:50 GMT 48.090591 -7.375259 36,000 259 471 0
2018-06-22 14:27:41 GMT 48.095215 -7.342712 36,000 259 471 0
2018-06-22 14:27:29 GMT 48.100285 -7.306824 35,975 259 472 0
2018-06-22 14:27:20 GMT 48.104942 -7.273653 36,000 259 472 0
2018-06-22 14:27:07 GMT 48.109909 -7.238480 36,000 259 472 0
2018-06-22 14:26:58 GMT 48.114075 -7.208679 35,975 259 472 0
2018-06-22 14:26:47 GMT 48.119293 -7.171257 36,000 259 473 0
2018-06-22 14:26:35 GMT 48.124866 -7.131535 36,000 259 472 0
2018-06-22 14:26:25 GMT 48.128769 -7.103691 36,000 259 472 0
2018-06-22 14:26:15 GMT 48.133526 -7.069561 36,000 259 472 0
2018-06-22 14:26:04 GMT 48.138062 -7.036674 35,975 259 472 0
2018-06-22 14:25:53 GMT 48.143143 -7.000145 35,975 259 473 0
2018-06-22 14:25:44 GMT 48.147259 -6.970332 36,000 259 473 0
2018-06-22 14:25:33 GMT 48.151611 -6.938347 36,000 259 473 0
2018-06-22 14:25:23 GMT 48.156235 -6.904907 35,975 259 473 0
2018-06-22 14:25:13 GMT 48.160904 -6.870821 36,000 259 473 0
2018-06-22 14:25:02 GMT 48.165665 -6.835961 36,000 259 473 0
2018-06-22 14:24:52 GMT 48.169876 -6.805185 36,000 259 473 0
2018-06-22 14:24:49 GMT 48.171043 -6.796634 36,000 259 473 0
2018-06-22 14:24:40 GMT 48.174957 -6.767867 35,975 259 473 0
2018-06-22 14:24:29 GMT 48.179810 -6.732084 36,000 259 473 0
2018-06-22 14:24:20 GMT 48.183517 -6.704618 36,000 259 473 0
2018-06-22 14:24:10 GMT 48.188271 -6.669424 36,000 259 473 0
2018-06-22 14:24:07 GMT 48.189571 -6.659739 36,000 259 473 0
2018-06-22 14:23:59 GMT 48.193176 -6.633277 36,000 259 473 0
2018-06-22 14:23:55 GMT 48.194550 -6.623277 36,000 259 473 0
2018-06-22 14:23:50 GMT 48.196743 -6.606831 36,000 259 473 0
2018-06-22 14:23:47 GMT 48.198029 -6.597431 36,000 259 473 0
2018-06-22 14:23:37 GMT 48.202141 -6.566861 35,975 259 473 0
2018-06-22 14:23:27 GMT 48.206936 -6.531155 36,000 259 472 0
2018-06-22 14:23:23 GMT 48.208427 -6.519880 36,000 259 472 0
2018-06-22 14:23:18 GMT 48.210663 -6.503111 36,000 259 472 0
2018-06-22 14:23:08 GMT 48.215286 -6.468342 36,000 259 472 0
2018-06-22 14:22:56 GMT 48.219833 -6.433941 35,975 259 472 0
2018-06-22 14:22:45 GMT 48.224396 -6.399818 35,975 259 472 0
2018-06-22 14:22:38 GMT 48.227646 -6.375099 35,975 259 472 0
2018-06-22 14:22:35 GMT 48.228817 -6.366288 36,000 259 471 0
2018-06-22 14:22:26 GMT 48.232681 -6.337160 35,975 259 470 0
2018-06-22 14:22:22 GMT 48.234447 -6.323716 36,000 259 470 0
2018-06-22 14:22:16 GMT 48.237396 -6.301363 36,000 259 470 0
2018-06-22 14:22:13 GMT 48.237991 -6.296927 35,975 259 470 0
2018-06-22 14:22:05 GMT 48.241608 -6.269179 35,975 259 469 0
2018-06-22 14:22:00 GMT 48.243805 -6.252739 36,000 259 470 0
2018-06-22 14:21:55 GMT 48.245762 -6.237705 35,975 259 469 0
2018-06-22 14:21:51 GMT 48.247101 -6.227276 35,975 259 469 0
2018-06-22 14:21:44 GMT 48.250626 -6.200655 35,975 259 469 0
2018-06-22 14:21:39 GMT 48.252411 -6.186993 35,975 259 469 0
2018-06-22 14:21:33 GMT 48.254929 -6.167837 36,000 259 469 0
2018-06-22 14:21:30 GMT 48.255959 -6.159716 36,000 259 469 0
2018-06-22 14:21:23 GMT 48.259075 -6.135720 36,000 260 470 0
2018-06-22 14:21:20 GMT 48.260937 -6.121625 36,000 259 469 0
2018-06-22 14:21:13 GMT 48.263870 -6.099002 36,000 259 469 0
2018-06-22 14:21:09 GMT 48.264568 -6.093798 36,000 259 469 0
2018-06-22 14:21:04 GMT 48.266510 -6.078609 36,000 260 469 0
2018-06-22 14:21:00 GMT 48.268757 -6.061201 36,000 260 469 0
2018-06-22 14:20:52 GMT 48.271645 -6.038867 36,000 260 469 0
2018-06-22 14:20:48 GMT 48.273560 -6.024099 36,000 260 469 0
2018-06-22 14:20:42 GMT 48.276161 -6.004028 35,975 260 470 0
2018-06-22 14:20:38 GMT 48.277634 -5.992549 35,975 260 470 0
2018-06-22 14:20:34 GMT 48.279190 -5.980436 35,975 260 470 0
2018-06-22 14:20:30 GMT 48.280956 -5.966805 36,000 260 470 0
2018-06-22 14:20:27 GMT 48.281841 -5.959649 36,000 260 470 0
2018-06-22 14:20:21 GMT 48.284538 -5.938616 36,000 260 470 0
2018-06-22 14:20:16 GMT 48.286587 -5.922570 36,000 260 470 0
2018-06-22 14:20:11 GMT 48.288498 -5.907970 36,000 260 470 0
2018-06-22 14:20:06 GMT 48.290779 -5.889973 36,000 260 470 0
2018-06-22 14:20:01 GMT 48.292641 -5.874794 36,000 260 470 0
2018-06-22 14:19:54 GMT 48.295525 -5.852749 36,000 260 470 0
2018-06-22 14:19:51 GMT 48.296925 -5.842052 36,000 260 470 0
2018-06-22 14:19:45 GMT 48.299332 -5.823036 36,000 260 470 0
2018-06-22 14:19:41 GMT 48.301208 -5.808387 36,000 260 470 0
2018-06-22 14:19:35 GMT 48.303440 -5.790879 35,975 260 470 0
2018-06-22 14:19:30 GMT 48.305237 -5.776555 36,000 260 470 0
2018-06-22 14:19:24 GMT 48.307663 -5.757188 36,000 260 470 0
2018-06-22 14:19:19 GMT 48.309952 -5.739089 36,000 260 471 0
2018-06-22 14:19:13 GMT 48.312195 -5.721271 36,000 260 471 0
2018-06-22 14:19:10 GMT 48.313774 -5.708915 36,000 260 471 0
2018-06-22 14:19:01 GMT 48.317081 -5.682606 36,000 260 471 0
2018-06-22 14:18:57 GMT 48.318420 -5.671340 36,000 260 471 0
2018-06-22 14:18:51 GMT 48.320938 -5.651691 36,000 260 471 0
2018-06-22 14:18:48 GMT 48.322201 -5.641624 36,000 260 471 0
2018-06-22 14:18:41 GMT 48.324966 -5.619648 36,000 260 471 0
2018-06-22 14:18:36 GMT 48.326950 -5.603750 36,000 260 471 0
2018-06-22 14:18:31 GMT 48.329182 -5.585897 35,975 260 471 0
2018-06-22 14:18:27 GMT 48.330719 -5.573755 35,975 260 471 0
2018-06-22 14:18:20 GMT 48.333279 -5.553083 35,975 260 471 0
2018-06-22 14:18:17 GMT 48.334629 -5.542530 35,975 260 471 0
2018-06-22 14:18:10 GMT 48.337326 -5.520912 35,975 260 470 0
2018-06-22 14:18:06 GMT 48.339111 -5.506686 35,975 260 470 0
2018-06-22 14:17:59 GMT 48.341984 -5.483190 36,000 260 470 0
2018-06-22 14:17:56 GMT 48.342869 -5.476179 36,000 260 470 0
2018-06-22 14:17:49 GMT 48.345711 -5.453122 36,000 260 470 0
2018-06-22 14:17:46 GMT 48.346874 -5.443798 36,000 260 470 0
2018-06-22 14:17:38 GMT 48.349960 -5.418795 36,000 260 470 0
2018-06-22 14:17:35 GMT 48.351528 -5.406285 35,975 260 470 0
2018-06-22 14:17:28 GMT 48.354462 -5.382217 36,000 260 471 0
2018-06-22 14:17:25 GMT 48.355301 -5.375495 35,975 260 471 0
2018-06-22 14:17:16 GMT 48.359398 -5.342247 35,975 260 470 0
2018-06-22 14:17:08 GMT 48.361954 -5.320693 35,975 260 470 0
2018-06-22 14:17:05 GMT 48.363235 -5.310833 35,975 260 470 0
2018-06-22 14:17:02 GMT 48.364285 -5.302204 35,975 260 470 0
2018-06-22 14:16:57 GMT 48.366440 -5.284565 36,000 260 470 0
2018-06-22 14:16:54 GMT 48.367310 -5.277196 36,000 260 470 0
2018-06-22 14:16:48 GMT 48.369965 -5.255690 36,000 260 470 0
2018-06-22 14:16:44 GMT 48.371498 -5.243153 36,000 260 470 0
2018-06-22 14:16:37 GMT 48.374245 -5.220602 36,000 260 470 0
2018-06-22 14:16:34 GMT 48.375317 -5.211784 36,000 260 470 0
2018-06-22 14:16:27 GMT 48.377930 -5.190195 36,000 260 470 0
2018-06-22 14:16:24 GMT 48.379532 -5.177096 36,000 260 470 0
2018-06-22 14:16:14 GMT 48.383648 -5.142975 36,000 260 470 0
2018-06-22 14:16:03 GMT 48.387497 -5.111248 36,000 260 470 0
2018-06-22 14:15:56 GMT 48.390213 -5.088405 36,000 260 470 0
2018-06-22 14:15:53 GMT 48.391609 -5.076840 36,000 260 470 0
2018-06-22 14:15:45 GMT 48.394218 -5.055012 35,975 260 469 0
2018-06-22 14:15:42 GMT 48.395554 -5.043781 35,975 260 469 0
2018-06-22 14:15:39 GMT 48.396732 -5.034123 36,000 260 469 0
2018-06-22 14:15:34 GMT 48.398453 -5.019885 36,000 260 469 0
2018-06-22 14:15:31 GMT 48.399570 -5.010272 36,000 260 469 0
2018-06-22 14:15:26 GMT 48.401756 -4.992202 36,000 260 469 0
2018-06-22 14:15:22 GMT 48.403294 -4.979192 36,000 260 469 0
2018-06-22 14:15:13 GMT 48.406506 -4.952521 35,975 260 469 0
2018-06-22 14:15:10 GMT 48.407593 -4.943214 36,000 260 469 0
2018-06-22 14:15:07 GMT 48.408875 -4.932439 36,000 260 469 0
2018-06-22 14:15:04 GMT 48.410568 -4.918354 35,975 260 469 0
2018-06-22 14:15:01 GMT 48.411255 -4.912508 35,975 260 469 0
2018-06-22 14:14:54 GMT 48.413910 -4.890043 36,000 260 469 0
2018-06-22 14:14:51 GMT 48.415211 -4.879158 36,000 260 468 0
2018-06-22 14:14:43 GMT 48.418121 -4.854337 36,000 260 468 0
2018-06-22 14:14:38 GMT 48.419632 -4.841520 36,000 260 468 0
2018-06-22 14:14:33 GMT 48.422009 -4.821408 36,000 260 468 0
2018-06-22 14:14:29 GMT 48.423111 -4.812082 36,000 260 468 0
2018-06-22 14:14:25 GMT 48.424664 -4.798857 36,000 260 468 0
2018-06-22 14:14:22 GMT 48.425964 -4.788015 36,000 260 468 0
2018-06-22 14:14:19 GMT 48.426849 -4.780426 35,975 261 468 0
2018-06-22 14:14:12 GMT 48.429783 -4.755562 35,975 261 468 0
2018-06-22 14:14:09 GMT 48.430710 -4.747432 35,975 261 467 0
2018-06-22 14:14:02 GMT 48.433456 -4.724262 36,000 261 467 0
2018-06-22 14:13:58 GMT 48.434738 -4.713064 36,000 261 467 0
2018-06-22 14:13:51 GMT 48.437485 -4.689472 36,000 261 467 0
2018-06-22 14:13:48 GMT 48.438534 -4.680682 36,000 261 467 0
2018-06-22 14:13:43 GMT 48.440598 -4.662851 35,975 261 465 0
2018-06-22 14:13:39 GMT 48.442245 -4.648555 36,000 261 466 0
2018-06-22 14:13:36 GMT 48.443069 -4.641512 36,000 261 466 0
2018-06-22 14:13:30 GMT 48.445038 -4.624469 35,975 261 466 0
2018-06-22 14:13:27 GMT 48.446449 -4.612523 35,975 261 466 0
2018-06-22 14:13:20 GMT 48.448868 -4.591418 36,000 261 466 0
2018-06-22 14:13:16 GMT 48.450394 -4.578271 36,000 261 465 0
2018-06-22 14:13:13 GMT 48.451767 -4.566439 36,000 261 465 0
2018-06-22 14:13:10 GMT 48.452686 -4.558242 36,000 261 465 0
2018-06-22 14:13:06 GMT 48.454082 -4.546171 36,000 261 465 0
2018-06-22 14:13:00 GMT 48.456299 -4.527283 36,000 261 465 0
2018-06-22 14:12:55 GMT 48.458321 -4.509743 36,000 261 465 0
2018-06-22 14:12:50 GMT 48.460098 -4.494253 36,000 261 465 0
2018-06-22 14:12:47 GMT 48.461380 -4.482704 36,000 261 465 0
2018-06-22 14:12:44 GMT 48.462090 -4.476567 36,000 261 465 0
2018-06-22 14:12:38 GMT 48.464172 -4.458548 36,000 261 466 0
2018-06-22 14:12:34 GMT 48.465820 -4.443899 35,975 261 465 0
2018-06-22 14:12:29 GMT 48.467651 -4.427842 35,975 261 465 0
2018-06-22 14:12:24 GMT 48.469803 -4.409109 35,975 261 466 0
2018-06-22 14:12:21 GMT 48.470581 -4.402419 35,975 261 466 0
2018-06-22 14:12:18 GMT 48.471493 -4.394387 35,975 261 466 0
2018-06-22 14:12:13 GMT 48.473465 -4.376784 36,000 261 466 0
2018-06-22 14:12:08 GMT 48.475170 -4.361934 36,000 261 466 0
2018-06-22 14:12:03 GMT 48.477497 -4.341407 36,000 261 465 0
2018-06-22 14:11:58 GMT 48.478893 -4.329264 36,000 261 466 0
2018-06-22 14:11:54 GMT 48.480431 -4.315603 35,975 261 466 0
2018-06-22 14:11:50 GMT 48.481922 -4.302521 35,975 261 466 0
2018-06-22 14:11:47 GMT 48.482666 -4.295795 35,975 261 466 0
2018-06-22 14:11:44 GMT 48.483994 -4.284316 36,000 261 466 0
2018-06-22 14:11:41 GMT 48.485413 -4.271730 35,975 261 466 0
2018-06-22 14:11:37 GMT 48.486420 -4.262836 35,975 261 466 0
2018-06-22 14:11:34 GMT 48.488022 -4.248469 35,975 261 466 0
2018-06-22 14:11:31 GMT 48.489029 -4.239596 35,975 261 466 0
2018-06-22 14:11:27 GMT 48.490067 -4.230387 35,975 261 466 0
2018-06-22 14:11:22 GMT 48.491882 -4.214124 36,000 261 466 0
2018-06-22 14:11:19 GMT 48.493149 -4.202834 36,000 261 466 0
2018-06-22 14:11:16 GMT 48.493927 -4.196073 36,000 261 466 0
2018-06-22 14:11:12 GMT 48.495483 -4.182129 36,000 261 466 0
2018-06-22 14:11:09 GMT 48.496628 -4.171847 36,000 261 466 0
2018-06-22 14:11:06 GMT 48.497543 -4.163818 36,000 261 466 0
2018-06-22 14:11:03 GMT 48.498825 -4.152128 35,975 261 466 0
2018-06-22 14:10:59 GMT 48.500587 -4.136353 36,000 261 466 0
2018-06-22 14:10:56 GMT 48.501286 -4.130064 35,975 261 466 0
2018-06-22 14:10:52 GMT 48.502499 -4.119078 35,975 261 466 0
2018-06-22 14:10:48 GMT 48.504364 -4.102548 35,975 261 466 0
2018-06-22 14:10:45 GMT 48.505150 -4.095443 35,975 261 466 0
2018-06-22 14:10:42 GMT 48.506176 -4.085974 35,975 261 466 0
2018-06-22 14:10:38 GMT 48.507896 -4.070579 36,000 261 466 0
2018-06-22 14:10:35 GMT 48.508484 -4.065153 36,000 261 466 0
2018-06-22 14:10:32 GMT 48.509853 -4.053015 36,000 261 466 0
2018-06-22 14:10:28 GMT 48.511017 -4.042391 36,000 261 466 0
2018-06-22 14:10:25 GMT 48.512192 -4.031842 36,000 261 466 0
2018-06-22 14:10:22 GMT 48.513344 -4.021285 36,000 261 466 0
2018-06-22 14:10:17 GMT 48.515350 -4.003038 36,000 261 466 0
2018-06-22 14:10:14 GMT 48.515854 -3.998671 36,000 261 466 0
2018-06-22 14:10:10 GMT 48.517319 -3.985361 36,000 261 466 0
2018-06-22 14:10:04 GMT 48.519444 -3.966281 36,000 261 466 0
2018-06-22 14:10:01 GMT 48.520432 -3.956909 36,000 261 466 0
2018-06-22 14:09:56 GMT 48.522514 -3.938310 36,000 261 466 0
2018-06-22 14:09:52 GMT 48.523865 -3.925781 36,000 261 466 0
2018-06-22 14:09:49 GMT 48.524750 -3.917782 36,000 261 466 0
2018-06-22 14:09:45 GMT 48.526192 -3.904483 36,000 261 466 0
2018-06-22 14:09:42 GMT 48.527390 -3.893808 35,975 261 466 0
2018-06-22 14:09:38 GMT 48.528763 -3.880991 36,000 261 466 0
2018-06-22 14:09:35 GMT 48.529633 -3.873385 36,000 261 466 0
2018-06-22 14:09:32 GMT 48.530731 -3.863032 36,000 261 467 0
2018-06-22 14:09:29 GMT 48.531872 -3.852660 36,000 261 466 0
2018-06-22 14:09:26 GMT 48.533268 -3.839649 36,000 261 466 0
2018-06-22 14:09:23 GMT 48.533966 -3.833361 36,000 261 467 0
2018-06-22 14:09:20 GMT 48.535126 -3.822820 36,000 261 467 0
2018-06-22 14:09:16 GMT 48.536819 -3.806974 36,000 261 467 0
2018-06-22 14:09:13 GMT 48.537411 -3.801414 36,000 261 467 0
2018-06-22 14:09:09 GMT 48.538651 -3.790142 36,000 261 467 0
2018-06-22 14:09:05 GMT 48.540253 -3.775611 35,975 261 467 0
2018-06-22 14:09:01 GMT 48.542252 -3.757107 36,000 261 467 0
2018-06-22 14:08:55 GMT 48.543697 -3.743664 35,975 261 466 0
2018-06-22 14:08:51 GMT 48.545563 -3.726548 35,975 261 466 0
2018-06-22 14:08:48 GMT 48.546024 -3.721908 35,975 261 467 0
2018-06-22 14:08:42 GMT 48.548172 -3.702040 35,975 261 467 0
2018-06-22 14:08:39 GMT 48.549225 -3.692111 35,975 261 467 0
2018-06-22 14:08:35 GMT 48.550735 -3.678025 35,975 261 467 0
2018-06-22 14:08:31 GMT 48.552307 -3.663434 36,000 261 466 0
2018-06-22 14:08:27 GMT 48.553520 -3.652231 35,975 261 465 0
2018-06-22 14:08:22 GMT 48.554901 -3.639573 36,000 261 465 0
2018-06-22 14:08:19 GMT 48.556217 -3.627078 36,000 261 465 0
2018-06-22 14:08:16 GMT 48.557053 -3.619080 36,000 261 465 0
2018-06-22 14:08:12 GMT 48.558472 -3.606192 36,000 261 465 0
2018-06-22 14:08:09 GMT 48.559525 -3.596051 35,975 261 465 0
2018-06-22 14:08:06 GMT 48.560577 -3.586473 36,000 261 464 0
2018-06-22 14:08:01 GMT 48.562317 -3.570051 36,000 261 464 0
2018-06-22 14:07:58 GMT 48.563278 -3.560768 36,000 261 464 0
2018-06-22 14:07:55 GMT 48.564552 -3.548801 36,000 261 464 0
2018-06-22 14:07:51 GMT 48.565620 -3.538826 36,000 261 464 0
2018-06-22 14:07:48 GMT 48.566666 -3.528865 35,975 261 464 0
2018-06-22 14:07:43 GMT 48.568230 -3.513963 36,000 261 464 0
2018-06-22 14:07:40 GMT 48.569252 -3.504277 35,975 261 464 0
2018-06-22 14:07:37 GMT 48.570091 -3.496399 35,975 261 464 0
2018-06-22 14:07:33 GMT 48.571766 -3.480642 35,975 261 464 0
2018-06-22 14:07:30 GMT 48.572525 -3.473440 36,000 261 464 0
2018-06-22 14:07:27 GMT 48.573578 -3.463299 35,975 261 464 0
2018-06-22 14:07:21 GMT 48.575775 -3.442735 35,975 261 463 0
2018-06-22 14:07:18 GMT 48.576965 -3.431256 35,975 261 463 0
2018-06-22 14:07:13 GMT 48.578384 -3.417804 35,975 261 463 0
2018-06-22 14:07:10 GMT 48.579353 -3.408581 36,000 261 463 0
2018-06-22 14:07:07 GMT 48.580170 -3.400621 36,000 261 463 0
2018-06-22 14:07:04 GMT 48.581406 -3.389071 36,000 262 463 0
2018-06-22 14:07:00 GMT 48.582848 -3.375549 35,975 262 463 0
2018-06-22 14:06:57 GMT 48.583740 -3.366817 36,000 262 463 0
2018-06-22 14:06:54 GMT 48.584846 -3.356323 35,975 262 463 0
2018-06-22 14:06:51 GMT 48.585545 -3.349312 36,000 262 463 0
2018-06-22 14:06:48 GMT 48.586712 -3.338470 35,975 262 463 0
2018-06-22 14:06:45 GMT 48.587677 -3.329280 36,000 262 463 0
2018-06-22 14:06:42 GMT 48.588806 -3.318088 36,000 262 463 0
2018-06-22 14:06:39 GMT 48.589508 -3.311462 36,000 262 463 0
2018-06-22 14:06:36 GMT 48.590836 -3.298715 36,000 262 463 0
2018-06-22 14:06:33 GMT 48.591553 -3.291706 36,000 262 463 0
2018-06-22 14:06:30 GMT 48.593033 -3.277729 36,000 262 463 0
2018-06-22 14:06:25 GMT 48.594360 -3.264841 36,000 262 462 0
2018-06-22 14:06:20 GMT 48.595963 -3.248925 35,975 262 463 0
2018-06-22 14:06:17 GMT 48.596905 -3.239955 35,975 262 463 0
2018-06-22 14:06:14 GMT 48.597839 -3.231248 36,000 262 463 0
2018-06-22 14:06:11 GMT 48.598938 -3.220403 35,975 262 463 0
2018-06-22 14:06:08 GMT 48.600025 -3.209887 35,975 262 463 0
2018-06-22 14:06:05 GMT 48.601181 -3.198641 35,975 262 463 0
2018-06-22 14:06:00 GMT 48.602783 -3.183077 35,975 262 463 0
2018-06-22 14:05:57 GMT 48.603882 -3.172514 35,975 262 463 0
2018-06-22 14:05:54 GMT 48.604492 -3.166592 35,975 262 462 0
2018-06-22 14:05:51 GMT 48.605392 -3.157936 36,000 262 462 0
2018-06-22 14:05:48 GMT 48.606354 -3.148287 36,000 262 462 0
2018-06-22 14:05:45 GMT 48.607498 -3.137019 36,000 262 462 0
2018-06-22 14:05:41 GMT 48.608868 -3.123803 36,000 262 462 0
2018-06-22 14:05:38 GMT 48.609650 -3.115962 36,000 262 462 0
2018-06-22 14:05:35 GMT 48.610519 -3.107652 36,000 262 462 0
2018-06-22 14:05:32 GMT 48.611755 -3.095181 36,000 262 462 0
2018-06-22 14:05:29 GMT 48.612442 -3.088355 36,000 262 462 0
2018-06-22 14:05:26 GMT 48.614037 -3.072847 36,000 262 462 0
2018-06-22 14:05:23 GMT 48.614639 -3.066876 36,000 262 462 0
2018-06-22 14:05:20 GMT 48.615555 -3.058002 36,000 262 462 0
2018-06-22 14:05:17 GMT 48.616791 -3.045748 36,000 262 462 0
2018-06-22 14:05:14 GMT 48.617523 -3.038635 35,975 262 462 0
2018-06-22 14:05:11 GMT 48.618576 -3.028142 35,975 262 462 0
2018-06-22 14:05:08 GMT 48.619530 -3.018855 35,975 262 462 0
2018-06-22 14:05:05 GMT 48.620319 -3.011049 36,000 262 462 0
2018-06-22 14:05:02 GMT 48.621277 -3.001873 35,975 262 462 0
2018-06-22 14:04:59 GMT 48.622238 -2.992366 35,975 262 462 0
2018-06-22 14:04:56 GMT 48.623718 -2.977439 35,975 262 462 0
2018-06-22 14:04:53 GMT 48.624229 -2.972308 35,975 262 462 0
2018-06-22 14:04:50 GMT 48.625443 -2.960463 35,975 262 462 0
2018-06-22 14:04:47 GMT 48.626186 -2.953298 35,975 262 462 0
2018-06-22 14:04:44 GMT 48.627026 -2.944842 36,000 262 462 0
2018-06-22 14:04:39 GMT 48.628887 -2.926339 36,000 262 462 0
2018-06-22 14:04:36 GMT 48.629562 -2.919687 35,975 262 462 0
2018-06-22 14:04:33 GMT 48.630753 -2.907644 36,000 262 462 0
2018-06-22 14:04:29 GMT 48.632191 -2.893235 35,975 262 462 0
2018-06-22 14:04:25 GMT 48.633133 -2.883700 36,000 262 462 0
2018-06-22 14:04:22 GMT 48.634460 -2.870812 35,975 262 462 0
2018-06-22 14:04:19 GMT 48.635498 -2.860276 35,975 262 462 0
2018-06-22 14:04:15 GMT 48.636242 -2.852615 35,975 262 462 0
2018-06-22 14:04:12 GMT 48.637344 -2.842008 36,000 262 462 0
2018-06-22 14:04:08 GMT 48.638809 -2.827148 35,975 262 462 0
2018-06-22 14:04:05 GMT 48.639500 -2.820162 35,975 262 462 0
2018-06-22 14:04:01 GMT 48.640915 -2.805669 35,975 262 462 0
2018-06-22 14:03:58 GMT 48.641968 -2.795225 35,975 262 462 0
2018-06-22 14:03:55 GMT 48.642838 -2.786724 35,975 262 462 0
2018-06-22 14:03:52 GMT 48.643688 -2.777951 35,975 262 462 0
2018-06-22 14:03:49 GMT 48.644482 -2.769856 36,000 262 462 0
2018-06-22 14:03:46 GMT 48.645447 -2.760033 35,975 262 462 0
2018-06-22 14:03:43 GMT 48.646439 -2.750051 35,975 262 462 0
2018-06-22 14:03:40 GMT 48.647369 -2.740737 35,975 262 462 0
2018-06-22 14:03:37 GMT 48.648720 -2.727356 36,000 262 462 0
2018-06-22 14:03:34 GMT 48.649277 -2.721429 35,975 262 461 0
2018-06-22 14:03:30 GMT 48.650532 -2.708780 36,000 262 461 0
2018-06-22 14:03:27 GMT 48.651791 -2.695915 35,975 262 461 0
2018-06-22 14:03:24 GMT 48.652443 -2.689482 35,975 262 461 0
2018-06-22 14:03:20 GMT 48.653744 -2.676183 35,975 262 461 0
2018-06-22 14:03:17 GMT 48.654602 -2.667706 35,975 262 461 0
2018-06-22 14:03:13 GMT 48.655838 -2.654888 35,975 262 461 0
2018-06-22 14:03:10 GMT 48.656937 -2.643409 36,000 262 460 0
2018-06-22 14:03:06 GMT 48.658028 -2.632310 36,000 262 460 0
2018-06-22 14:03:03 GMT 48.659180 -2.620732 36,000 262 460 0
2018-06-22 14:02:59 GMT 48.660217 -2.610193 36,000 262 460 0
2018-06-22 14:02:56 GMT 48.661423 -2.597774 36,000 262 459 0
2018-06-22 14:02:53 GMT 48.662079 -2.591111 36,000 262 460 0
2018-06-22 14:02:47 GMT 48.664078 -2.570449 36,000 262 459 0
2018-06-22 14:02:43 GMT 48.665337 -2.557429 36,000 262 459 0
2018-06-22 14:02:38 GMT 48.666962 -2.540588 36,000 262 459 0
2018-06-22 14:02:35 GMT 48.667603 -2.534109 36,000 262 459 0
2018-06-22 14:02:32 GMT 48.668564 -2.524320 36,000 262 458 0
2018-06-22 14:02:28 GMT 48.669983 -2.509531 36,000 262 459 0
2018-06-22 14:02:25 GMT 48.670670 -2.502488 36,000 262 459 0
2018-06-22 14:02:22 GMT 48.671631 -2.492418 36,000 262 458 0
2018-06-22 14:02:16 GMT 48.673717 -2.470912 36,000 262 458 0
2018-06-22 14:02:12 GMT 48.674786 -2.459709 35,975 262 458 0
2018-06-22 14:02:07 GMT 48.676208 -2.445021 36,000 262 458 0
2018-06-22 14:02:04 GMT 48.677299 -2.433761 35,975 262 458 0
2018-06-22 14:02:01 GMT 48.678047 -2.425738 35,975 262 458 0
2018-06-22 14:01:58 GMT 48.678955 -2.416288 35,975 262 458 0
2018-06-22 14:01:54 GMT 48.680466 -2.400513 36,000 262 458 0
2018-06-22 14:01:51 GMT 48.681198 -2.393048 36,000 262 458 0
2018-06-22 14:01:48 GMT 48.682343 -2.381075 36,000 262 458 0
2018-06-22 14:01:45 GMT 48.682980 -2.374131 36,000 262 458 0
2018-06-22 14:01:41 GMT 48.684238 -2.360976 36,000 262 458 0
2018-06-22 14:01:38 GMT 48.685448 -2.348328 35,975 262 458 0
2018-06-22 14:01:34 GMT 48.686100 -2.341389 35,975 262 458 0
2018-06-22 14:01:31 GMT 48.687031 -2.331776 36,000 262 458 0
2018-06-22 14:01:28 GMT 48.688522 -2.316073 35,975 262 457 0
2018-06-22 14:01:23 GMT 48.689777 -2.302937 36,000 262 457 0
2018-06-22 14:01:20 GMT 48.690380 -2.296576 36,000 262 457 0
2018-06-22 14:01:13 GMT 48.692917 -2.269381 36,000 262 458 0
2018-06-22 14:01:09 GMT 48.693642 -2.261593 36,000 262 458 0
2018-06-22 14:01:06 GMT 48.694710 -2.250535 36,000 262 458 0
2018-06-22 14:01:02 GMT 48.695827 -2.238248 36,000 262 458 0
2018-06-22 14:00:59 GMT 48.696712 -2.228851 36,000 262 458 0
2018-06-22 14:00:51 GMT 48.698948 -2.205289 36,000 262 458 0
2018-06-22 14:00:48 GMT 48.699966 -2.194378 36,000 262 458 0
2018-06-22 14:00:45 GMT 48.700928 -2.184096 36,000 262 458 0
2018-06-22 14:00:41 GMT 48.701881 -2.173992 36,000 263 459 0
2018-06-22 14:00:38 GMT 48.703136 -2.161271 36,000 262 458 0
2018-06-22 14:00:31 GMT 48.705418 -2.136335 36,000 262 458 0
2018-06-22 14:00:27 GMT 48.706100 -2.129024 35,975 262 458 0
2018-06-22 14:00:24 GMT 48.707279 -2.116386 35,975 262 458 0
2018-06-22 14:00:20 GMT 48.708160 -2.106840 36,000 262 459 0
2018-06-22 14:00:17 GMT 48.709122 -2.096558 36,000 262 459 0
2018-06-22 14:00:14 GMT 48.710167 -2.085595 36,000 262 459 0
2018-06-22 14:00:11 GMT 48.711143 -2.074898 36,000 263 459 0
2018-06-22 14:00:07 GMT 48.712280 -2.062754 36,000 263 459 0
2018-06-22 14:00:04 GMT 48.713146 -2.053215 35,975 263 459 0
2018-06-22 14:00:00 GMT 48.714542 -2.037964 36,000 263 459 0
2018-06-22 13:59:56 GMT 48.715302 -2.029865 35,975 263 459 0
2018-06-22 13:59:53 GMT 48.716080 -2.021484 35,975 263 461 0
2018-06-22 13:59:50 GMT 48.716995 -2.011625 36,000 263 459 0
2018-06-22 13:59:47 GMT 48.718266 -1.997922 36,000 263 460 0
2018-06-22 13:59:44 GMT 48.718826 -1.991778 36,000 263 460 0
2018-06-22 13:59:41 GMT 48.719616 -1.983321 36,000 263 460 0
2018-06-22 13:59:38 GMT 48.720566 -1.972821 36,000 263 460 0
2018-06-22 13:59:35 GMT 48.721619 -1.961349 35,975 263 460 0
2018-06-22 13:59:32 GMT 48.722271 -1.954049 35,975 263 460 0
2018-06-22 13:59:29 GMT 48.723526 -1.940822 35,975 263 460 0
2018-06-22 13:59:25 GMT 48.724503 -1.930143 35,975 263 460 0
2018-06-22 13:59:22 GMT 48.725189 -1.922326 35,975 263 460 0
2018-06-22 13:59:18 GMT 48.726517 -1.907818 35,975 263 460 0
2018-06-22 13:59:15 GMT 48.727295 -1.899578 36,000 263 461 0
2018-06-22 13:59:11 GMT 48.728668 -1.884226 36,000 263 461 0
2018-06-22 13:59:08 GMT 48.729492 -1.875282 36,000 263 461 0
2018-06-22 13:59:05 GMT 48.730087 -1.868732 36,000 263 461 0
2018-06-22 13:59:01 GMT 48.731255 -1.855894 36,000 263 461 0
2018-06-22 13:58:58 GMT 48.732605 -1.841077 36,000 263 461 0
2018-06-22 13:58:55 GMT 48.733303 -1.832910 35,975 263 461 0
2018-06-22 13:58:50 GMT 48.734619 -1.818378 35,975 263 461 0
2018-06-22 13:58:47 GMT 48.735535 -1.808659 35,975 263 461 0
2018-06-22 13:58:43 GMT 48.736679 -1.795631 35,975 263 461 0
2018-06-22 13:58:39 GMT 48.737869 -1.782884 36,000 263 461 0
2018-06-22 13:58:35 GMT 48.738750 -1.772991 35,975 263 461 0
2018-06-22 13:58:30 GMT 48.740387 -1.754855 35,975 263 461 0
2018-06-22 13:58:27 GMT 48.741402 -1.743646 35,975 263 461 0
2018-06-22 13:58:24 GMT 48.741852 -1.738375 35,975 263 461 0
2018-06-22 13:58:21 GMT 48.742939 -1.726516 36,000 263 461 0
2018-06-22 13:58:18 GMT 48.743683 -1.718304 35,975 263 461 0
2018-06-22 13:58:11 GMT 48.746063 -1.691402 36,000 263 461 0
2018-06-22 13:58:07 GMT 48.746750 -1.683514 35,975 263 461 0
2018-06-22 13:58:04 GMT 48.747711 -1.673161 35,975 263 461 0
2018-06-22 13:58:01 GMT 48.748573 -1.663345 35,975 263 461 0
2018-06-22 13:57:58 GMT 48.749405 -1.654076 36,000 263 461 0
2018-06-22 13:57:54 GMT 48.750778 -1.638653 35,975 263 461 0
2018-06-22 13:57:48 GMT 48.752342 -1.621134 35,975 263 461 0
2018-06-22 13:57:45 GMT 48.753204 -1.611046 35,975 263 466 1088
2018-06-22 13:57:42 GMT 48.753880 -1.603498 35,975 263 461 0
2018-06-22 13:57:38 GMT 48.755089 -1.590054 35,975 263 461 0
2018-06-22 13:57:35 GMT 48.756317 -1.575975 35,975 263 461 0
2018-06-22 13:57:31 GMT 48.757141 -1.566960 35,975 263 461 0
2018-06-22 13:57:27 GMT 48.758423 -1.552030 35,975 263 461 0
2018-06-22 13:57:24 GMT 48.759109 -1.544424 35,975 263 461 0
2018-06-22 13:57:21 GMT 48.759888 -1.535269 35,975 263 461 0
2018-06-22 13:57:18 GMT 48.760769 -1.525654 36,000 263 461 0
2018-06-22 13:57:15 GMT 48.761536 -1.516536 36,000 263 461 0
2018-06-22 13:57:12 GMT 48.762726 -1.503014 36,000 263 461 0
2018-06-22 13:57:08 GMT 48.763561 -1.493635 36,000 263 460 0
2018-06-22 13:57:03 GMT 48.764786 -1.479422 36,000 263 460 0
2018-06-22 13:57:00 GMT 48.765610 -1.470266 36,000 263 460 0
2018-06-22 13:56:57 GMT 48.766617 -1.458858 36,000 263 460 0
2018-06-22 13:56:54 GMT 48.767426 -1.449617 36,000 263 460 0
2018-06-22 13:56:51 GMT 48.768402 -1.438053 36,000 263 460 0
2018-06-22 13:56:46 GMT 48.769730 -1.422941 36,000 263 460 0
2018-06-22 13:56:42 GMT 48.770592 -1.413044 35,975 263 461 0
2018-06-22 13:56:38 GMT 48.771790 -1.399560 35,950 263 460 1024
2018-06-22 13:56:35 GMT 48.772797 -1.387869 35,975 263 461 192
2018-06-22 13:56:32 GMT 48.773621 -1.378221 35,950 263 460 512
2018-06-22 13:56:29 GMT 48.774765 -1.364910 35,975 263 461 64
2018-06-22 13:56:25 GMT 48.775246 -1.359269 35,975 263 460 448
2018-06-22 13:56:21 GMT 48.776413 -1.345755 35,950 263 461 256
2018-06-22 13:56:18 GMT 48.777435 -1.333682 35,875 263 461 320
2018-06-22 13:56:14 GMT 48.778599 -1.320600 35,925 263 460 768
2018-06-22 13:56:11 GMT 48.779617 -1.308500 35,875 263 460 960
2018-06-22 13:56:08 GMT 48.780136 -1.302530 35,825 263 461 1088
2018-06-22 13:56:05 GMT 48.781067 -1.291833 35,775 263 461 1088
2018-06-22 13:56:01 GMT 48.781860 -1.282231 35,725 263 461 1088
2018-06-22 13:55:58 GMT 48.782959 -1.269484 35,525 263 462 1024
2018-06-22 13:55:55 GMT 48.783691 -1.260963 35,575 263 462 1088
2018-06-22 13:55:52 GMT 48.784882 -1.246878 35,550 263 462 1088
2018-06-22 13:55:49 GMT 48.785202 -1.243357 35,475 263 462 1088
2018-06-22 13:55:44 GMT 48.786697 -1.225987 35,400 263 462 1088
2018-06-22 13:55:41 GMT 48.787628 -1.214857 35,375 263 462 1088
2018-06-22 13:55:37 GMT 48.788422 -1.205605 35,325 263 463 1088
2018-06-22 13:55:34 GMT 48.789444 -1.193607 35,200 263 463 1088
2018-06-22 13:55:31 GMT 48.790516 -1.180813 35,175 263 463 1088
2018-06-22 13:55:24 GMT 48.792206 -1.160959 34,900 263 464 1024
2018-06-22 13:55:21 GMT 48.792984 -1.151452 35,000 263 464 1024
2018-06-22 13:55:17 GMT 48.794128 -1.138071 34,825 263 464 896
2018-06-22 13:55:14 GMT 48.795090 -1.126873 34,800 263 464 896
2018-06-22 13:55:09 GMT 48.796280 -1.112859 34,825 263 464 896
2018-06-22 13:55:05 GMT 48.797359 -1.099572 34,750 263 464 896
2018-06-22 13:55:02 GMT 48.798244 -1.089309 34,575 263 464 896
2018-06-22 13:54:59 GMT 48.799118 -1.078562 34,650 263 464 896
2018-06-22 13:54:52 GMT 48.800850 -1.058301 34,550 263 464 960
2018-06-22 13:54:48 GMT 48.802296 -1.040665 34,475 263 464 1024
2018-06-22 13:54:43 GMT 48.803284 -1.028841 34,400 263 465 1088
2018-06-22 13:54:39 GMT 48.804714 -1.011682 34,325 263 465 1152
2018-06-22 13:54:35 GMT 48.805508 -1.001996 34,175 263 466 1088
2018-06-22 13:54:32 GMT 48.806156 -0.994407 34,225 263 466 1088
2018-06-22 13:54:29 GMT 48.806995 -0.984144 34,050 263 466 1088
2018-06-22 13:54:25 GMT 48.808365 -0.967783 33,900 263 467 1088
2018-06-22 13:54:22 GMT 48.809006 -0.960106 34,025 263 466 1088
2018-06-22 13:54:18 GMT 48.809921 -0.949261 33,925 263 467 1088
2018-06-22 13:54:15 GMT 48.810905 -0.937596 33,825 263 467 1024
2018-06-22 13:54:12 GMT 48.811569 -0.929401 33,850 263 467 1024
2018-06-22 13:54:09 GMT 48.812443 -0.918659 33,775 263 467 1024
2018-06-22 13:54:05 GMT 48.813721 -0.903273 33,700 263 467 960
2018-06-22 13:54:01 GMT 48.814445 -0.894229 32,225 264 469 1280
2018-06-22 13:53:58 GMT 48.815281 -0.884327 33,600 263 467 832
2018-06-22 13:53:54 GMT 48.816444 -0.870016 33,400 263 467 704
2018-06-22 13:53:51 GMT 48.817375 -0.858451 33,500 263 467 832
2018-06-22 13:53:48 GMT 48.818260 -0.848116 33,450 263 467 768
2018-06-22 13:53:44 GMT 48.819443 -0.833552 33,400 263 467 704
2018-06-22 13:53:41 GMT 48.819939 -0.827155 33,375 263 467 640
2018-06-22 13:53:37 GMT 48.820953 -0.815171 33,325 263 466 576
2018-06-22 13:53:33 GMT 48.822098 -0.800734 33,300 263 466 512
2018-06-22 13:53:29 GMT 48.823383 -0.784872 33,250 264 462 384
2018-06-22 13:53:26 GMT 48.823849 -0.779234 33,250 264 464 256
2018-06-22 13:53:21 GMT 48.825073 -0.764113 33,225 264 463 320
2018-06-22 13:53:18 GMT 48.825943 -0.753197 33,175 264 462 384
2018-06-22 13:53:15 GMT 48.826687 -0.744035 33,175 264 461 448
2018-06-22 13:53:10 GMT 48.828278 -0.724323 33,150 264 461 512
2018-06-22 13:53:07 GMT 48.828964 -0.715942 33,100 264 460 576
2018-06-22 13:53:04 GMT 48.829712 -0.706594 33,100 264 460 704
2018-06-22 13:53:00 GMT 48.830383 -0.697914 33,025 264 460 768
2018-06-22 13:52:57 GMT 48.831116 -0.688829 33,000 264 459 896
2018-06-22 13:52:54 GMT 48.832123 -0.676363 32,975 264 459 960
2018-06-22 13:52:50 GMT 48.832973 -0.665685 32,875 264 459 960
2018-06-22 13:52:47 GMT 48.834000 -0.652912 32,850 264 460 1024
2018-06-22 13:52:44 GMT 48.834740 -0.643423 32,725 264 460 1024
2018-06-22 13:52:39 GMT 48.835903 -0.628895 32,525 264 460 1088
2018-06-22 13:52:36 GMT 48.836788 -0.617836 32,600 264 460 1088
2018-06-22 13:52:33 GMT 48.837349 -0.610970 32,475 264 461 1152
2018-06-22 13:52:29 GMT 48.838512 -0.596153 32,175 264 462 1152
2018-06-22 13:52:26 GMT 48.839539 -0.583332 32,450 264 461 1152
2018-06-22 13:52:22 GMT 48.840088 -0.576008 32,350 264 464 1152
2018-06-22 13:52:18 GMT 48.841141 -0.562979 32,300 264 462 1152
2018-06-22 13:52:15 GMT 48.842281 -0.548088 32,200 264 463 1152
2018-06-22 13:52:12 GMT 48.842651 -0.543753 32,200 264 463 1152
2018-06-22 13:52:08 GMT 48.844116 -0.525442 31,925 264 464 1152
2018-06-22 13:52:04 GMT 48.844757 -0.516780 31,825 264 469 1344
2018-06-22 13:52:00 GMT 48.845726 -0.504504 31,800 264 465 1152
2018-06-22 13:51:57 GMT 48.846657 -0.492506 31,775 264 465 1152
2018-06-22 13:51:53 GMT 48.847458 -0.482483 31,600 264 465 1152
2018-06-22 13:51:50 GMT 48.848373 -0.471004 31,700 264 467 1216
2018-06-22 13:51:46 GMT 48.849358 -0.458101 31,625 264 466 1216
2018-06-22 13:51:42 GMT 48.850388 -0.444876 31,575 264 469 1344
2018-06-22 13:51:39 GMT 48.851120 -0.435650 31,375 264 467 1216
2018-06-22 13:51:36 GMT 48.851967 -0.424491 31,475 264 467 1280
2018-06-22 13:51:33 GMT 48.852493 -0.417833 31,425 264 468 1280
2018-06-22 13:51:30 GMT 48.853222 -0.408301 31,375 264 468 1280
2018-06-22 13:51:25 GMT 48.854599 -0.390508 30,775 264 472 1344
2018-06-22 13:51:21 GMT 48.856014 -0.371800 31,150 264 469 1280
2018-06-22 13:51:17 GMT 48.856525 -0.365440 31,100 264 470 1280
2018-06-22 13:51:14 GMT 48.857365 -0.354381 31,025 264 471 1344
2018-06-22 13:51:11 GMT 48.858204 -0.343467 30,875 264 471 1344
2018-06-22 13:51:07 GMT 48.859085 -0.331984 30,800 264 472 1344
2018-06-22 13:51:03 GMT 48.860207 -0.317303 30,600 264 476 0
2018-06-22 13:50:59 GMT 48.861145 -0.305223 30,575 264 479 960
2018-06-22 13:50:56 GMT 48.862019 -0.294246 30,600 264 474 1408
2018-06-22 13:50:53 GMT 48.862949 -0.281958 30,325 264 476 1408
2018-06-22 13:50:49 GMT 48.863708 -0.272475 30,300 264 479 960
2018-06-22 13:50:43 GMT 48.865265 -0.251911 30,325 264 476 1408
2018-06-22 13:50:38 GMT 48.866547 -0.235572 30,200 264 477 1344
2018-06-22 13:50:32 GMT 48.868103 -0.215431 30,075 264 478 1344
2018-06-22 13:50:28 GMT 48.869110 -0.202261 29,975 264 478 1216
2018-06-22 13:50:24 GMT 48.870121 -0.189442 29,900 264 479 1024
2018-06-22 13:50:21 GMT 48.870895 -0.179655 29,850 264 479 960
2018-06-22 13:50:18 GMT 48.871704 -0.169132 29,775 264 479 896
2018-06-22 13:50:13 GMT 48.872868 -0.154025 29,525 264 479 896
2018-06-22 13:50:10 GMT 48.873779 -0.142681 29,700 264 479 896
2018-06-22 13:50:07 GMT 48.874695 -0.131273 29,600 266 475 832
2018-06-22 13:50:01 GMT 48.876205 -0.113032 29,575 265 477 896
2018-06-22 13:49:58 GMT 48.877243 -0.100106 29,450 266 475 832
2018-06-22 13:49:52 GMT 48.878586 -0.084158 29,425 263 478 896
2018-06-22 13:49:47 GMT 48.880035 -0.067074 29,150 264 477 896
2018-06-22 13:49:42 GMT 48.881241 -0.049227 29,000 268 474 832
2018-06-22 13:49:39 GMT 48.881805 -0.037007 29,200 272 470 768
2018-06-22 13:49:35 GMT 48.882111 -0.024860 29,200 269 473 896
2018-06-22 13:49:31 GMT 48.882248 -0.014789 29,125 271 471 832
2018-06-22 13:49:27 GMT 48.882084 0.002024 29,000 272 469 448
2018-06-22 13:49:24 GMT 48.881947 0.010625 28,975 272 469 384
2018-06-22 13:49:21 GMT 48.881836 0.017113 29,000 272 469 0
2018-06-22 13:49:18 GMT 48.881573 0.030212 29,000 272 469 0
2018-06-22 13:49:15 GMT 48.881432 0.039753 29,000 272 469 0
2018-06-22 13:49:11 GMT 48.881149 0.053382 28,975 272 469 0
2018-06-22 13:49:04 GMT 48.880779 0.074808 29,000 272 469 0
2018-06-22 13:49:01 GMT 48.880554 0.085848 29,000 272 469 0
2018-06-22 13:48:54 GMT 48.880177 0.106466 29,000 272 469 0
2018-06-22 13:48:50 GMT 48.879894 0.119765 29,000 272 469 0
2018-06-22 13:48:44 GMT 48.879501 0.140498 28,975 272 467 0
2018-06-22 13:48:39 GMT 48.879181 0.156978 29,000 272 469 0
2018-06-22 13:48:34 GMT 48.878780 0.176793 29,000 272 469 0
2018-06-22 13:48:30 GMT 48.878593 0.187274 29,000 272 469 0
2018-06-22 13:48:27 GMT 48.878403 0.195993 29,000 272 468 0
2018-06-22 13:48:22 GMT 48.878033 0.214233 29,000 273 465 0
2018-06-22 13:48:19 GMT 48.877899 0.221135 29,000 272 468 0
2018-06-22 13:48:12 GMT 48.877350 0.248460 29,000 272 468 0
2018-06-22 13:48:09 GMT 48.877213 0.255150 29,000 272 468 0
2018-06-22 13:48:02 GMT 48.876755 0.278743 29,000 272 468 0
2018-06-22 13:47:59 GMT 48.876545 0.290054 29,000 272 468 0
2018-06-22 13:47:56 GMT 48.876389 0.297335 29,000 272 468 0
2018-06-22 13:47:53 GMT 48.876022 0.313110 29,000 272 468 0
2018-06-22 13:47:50 GMT 48.875977 0.316772 29,000 272 468 0
2018-06-22 13:47:47 GMT 48.875751 0.327711 29,000 272 468 0
2018-06-22 13:47:44 GMT 48.875473 0.339731 29,000 272 468 0
2018-06-22 13:47:41 GMT 48.875336 0.347689 29,000 272 468 0
2018-06-22 13:47:38 GMT 48.875149 0.356044 29,000 272 468 0
2018-06-22 13:47:35 GMT 48.874924 0.366845 28,975 273 466 0
2018-06-22 13:47:31 GMT 48.874683 0.378884 28,975 272 468 0
2018-06-22 13:47:28 GMT 48.874405 0.391677 28,975 272 468 0
2018-06-22 13:47:25 GMT 48.874237 0.399381 28,975 272 468 0
2018-06-22 13:47:19 GMT 48.873753 0.420661 28,975 272 468 0
2018-06-22 13:47:14 GMT 48.873459 0.435509 28,975 272 468 0
2018-06-22 13:47:09 GMT 48.873001 0.456003 29,000 272 467 0
2018-06-22 13:47:06 GMT 48.872864 0.461637 29,000 272 467 0
2018-06-22 13:47:03 GMT 48.872589 0.473680 29,000 272 467 0
2018-06-22 13:46:58 GMT 48.872223 0.490652 29,000 272 466 0
2018-06-22 13:46:54 GMT 48.871937 0.502408 29,000 272 466 0
2018-06-22 13:46:50 GMT 48.871658 0.515201 29,000 273 467 0
2018-06-22 13:46:47 GMT 48.871353 0.528330 29,000 272 466 0
2018-06-22 13:46:44 GMT 48.871216 0.534879 29,000 272 466 0
2018-06-22 13:46:39 GMT 48.870819 0.551918 28,975 272 467 0
2018-06-22 13:46:34 GMT 48.870445 0.567458 28,975 272 467 0
2018-06-22 13:46:31 GMT 48.870209 0.577698 28,975 273 466 0
2018-06-22 13:46:28 GMT 48.870071 0.585092 28,975 273 466 0
2018-06-22 13:46:24 GMT 48.869610 0.604176 28,975 273 467 0
2018-06-22 13:46:19 GMT 48.869236 0.619716 28,975 272 466 0
2018-06-22 13:46:16 GMT 48.869003 0.629112 28,975 273 467 0
2018-06-22 13:46:13 GMT 48.868790 0.638756 28,975 273 466 0
2018-06-22 13:46:10 GMT 48.868675 0.644869 28,975 273 466 0
2018-06-22 13:46:07 GMT 48.868378 0.656011 28,975 273 466 0
2018-06-22 13:46:00 GMT 48.867828 0.679321 29,000 273 466 0
2018-06-22 13:45:57 GMT 48.867699 0.686067 29,000 273 465 0
2018-06-22 13:45:52 GMT 48.867233 0.705293 29,000 273 465 0
2018-06-22 13:45:49 GMT 48.867046 0.712088 29,000 273 465 0
2018-06-22 13:45:46 GMT 48.866814 0.722351 29,000 273 465 0
2018-06-22 13:45:43 GMT 48.866501 0.734816 29,000 273 465 0
2018-06-22 13:45:39 GMT 48.866257 0.745986 29,000 273 465 0
2018-06-22 13:45:36 GMT 48.865978 0.756250 29,000 273 465 0
2018-06-22 13:45:33 GMT 48.865814 0.763832 29,000 273 465 0
2018-06-22 13:45:29 GMT 48.865372 0.781909 29,000 273 467 0
2018-06-22 13:45:24 GMT 48.865036 0.794537 29,000 273 466 0
2018-06-22 13:45:21 GMT 48.864815 0.803520 29,000 273 466 0
2018-06-22 13:45:18 GMT 48.864487 0.817355 28,975 273 467 0
2018-06-22 13:45:15 GMT 48.864254 0.825131 28,975 273 467 0
2018-06-22 13:45:11 GMT 48.863976 0.837852 28,975 273 467 0
2018-06-22 13:45:07 GMT 48.863556 0.853031 28,975 273 467 64
2018-06-22 13:45:03 GMT 48.863205 0.867638 28,975 273 467 0
2018-06-22 13:45:00 GMT 48.863068 0.872427 28,975 273 466 0
2018-06-22 13:44:55 GMT 48.862625 0.890109 28,975 273 456 832
2018-06-22 13:44:50 GMT 48.862251 0.904637 28,975 273 464 192
2018-06-22 13:44:44 GMT 48.861740 0.923838 28,925 273 461 704
2018-06-22 13:44:36 GMT 48.860950 0.954437 28,825 273 457 832
2018-06-22 13:44:33 GMT 48.860809 0.959135 28,775 273 456 832
2018-06-22 13:44:28 GMT 48.860344 0.976482 28,800 273 459 832
2018-06-22 13:44:25 GMT 48.860065 0.987324 28,750 273 459 768
2018-06-22 13:44:21 GMT 48.859726 0.999122 28,725 273 459 768
2018-06-22 13:44:18 GMT 48.859459 1.009080 28,650 273 458 832
2018-06-22 13:44:12 GMT 48.858902 1.028912 28,500 273 458 768
2018-06-22 13:44:07 GMT 48.858482 1.045653 28,525 273 457 832
2018-06-22 13:44:04 GMT 48.858204 1.055266 28,450 273 457 832
2018-06-22 13:44:01 GMT 48.858032 1.062153 28,425 273 456 832
2018-06-22 13:43:54 GMT 48.857365 1.086707 28,325 273 456 832
2018-06-22 13:43:51 GMT 48.857071 1.096872 28,275 273 457 768
2018-06-22 13:43:48 GMT 48.856808 1.107017 28,225 273 457 768
2018-06-22 13:43:41 GMT 48.856110 1.129831 28,150 273 456 832
2018-06-22 13:43:36 GMT 48.855690 1.145542 27,975 273 455 896
2018-06-22 13:43:30 GMT 48.855179 1.164695 27,975 273 454 1024
2018-06-22 13:43:25 GMT 48.854759 1.179151 27,925 273 455 960
2018-06-22 13:43:21 GMT 48.854279 1.195538 27,825 273 454 960
2018-06-22 13:43:18 GMT 48.854153 1.200112 27,800 273 454 1024
2018-06-22 13:43:15 GMT 48.853775 1.214130 27,750 273 453 1024
2018-06-22 13:43:11 GMT 48.853409 1.227511 27,700 273 453 1024
2018-06-22 13:43:08 GMT 48.853226 1.232370 27,625 273 453 1088
2018-06-22 13:43:05 GMT 48.852989 1.241238 27,525 273 452 1088
2018-06-22 13:42:59 GMT 48.852448 1.260752 27,500 273 452 1088
2018-06-22 13:42:56 GMT 48.852173 1.269907 27,450 273 452 1088
2018-06-22 13:42:53 GMT 48.851898 1.279696 27,400 273 452 1088
2018-06-22 13:42:48 GMT 48.851395 1.295612 27,250 273 451 1088
2018-06-22 13:42:45 GMT 48.851166 1.303711 27,250 273 451 1152
2018-06-22 13:42:42 GMT 48.850800 1.315396 27,200 273 451 1152
2018-06-22 13:42:35 GMT 48.850204 1.336388 27,025 273 450 1152
2018-06-22 13:42:32 GMT 48.849869 1.347704 26,975 273 450 1152
2018-06-22 13:42:28 GMT 48.849426 1.362516 26,900 273 450 1216
2018-06-22 13:42:23 GMT 48.848988 1.376977 26,825 273 449 1216
2018-06-22 13:42:17 GMT 48.848381 1.396782 26,700 273 449 1280
2018-06-22 13:42:14 GMT 48.848148 1.404226 26,550 273 449 1280
2018-06-22 13:42:11 GMT 48.847820 1.414923 26,575 273 449 1280
2018-06-22 13:42:06 GMT 48.847458 1.430969 26,425 273 449 1280
2018-06-22 13:42:02 GMT 48.847046 1.441110 26,400 273 448 1216
2018-06-22 13:41:58 GMT 48.846706 1.452436 26,300 273 448 1152
2018-06-22 13:41:55 GMT 48.846333 1.464001 26,250 273 448 1152
2018-06-22 13:41:51 GMT 48.845913 1.477444 26,175 273 447 1088
2018-06-22 13:41:47 GMT 48.845493 1.491611 26,100 273 447 1088
2018-06-22 13:41:43 GMT 48.845169 1.501676 25,975 273 446 1088
2018-06-22 13:41:40 GMT 48.844891 1.510765 25,975 273 445 1088
2018-06-22 13:41:33 GMT 48.844162 1.534283 25,850 273 445 1152
2018-06-22 13:41:30 GMT 48.844006 1.539893 25,800 273 444 1152
2018-06-22 13:41:27 GMT 48.843658 1.549917 25,650 273 443 1280
2018-06-22 13:41:22 GMT 48.843155 1.566679 25,550 273 443 1280
2018-06-22 13:41:18 GMT 48.842747 1.578490 25,250 273 442 1280
2018-06-22 13:41:15 GMT 48.842468 1.587947 25,500 273 442 1216
2018-06-22 13:41:12 GMT 48.842102 1.598863 25,400 273 442 1216
2018-06-22 13:41:09 GMT 48.841770 1.610437 25,350 273 442 1216
2018-06-22 13:41:06 GMT 48.841537 1.617086 25,300 273 441 1152
2018-06-22 13:41:00 GMT 48.841049 1.631329 24,875 273 427 1280
2018-06-22 13:40:57 GMT 48.840683 1.644076 25,150 273 440 1088
2018-06-22 13:40:51 GMT 48.840050 1.663272 25,000 273 439 1024
2018-06-22 13:40:48 GMT 48.839676 1.673753 24,975 273 439 1024
2018-06-22 13:40:45 GMT 48.839443 1.680980 24,950 273 438 960
2018-06-22 13:40:39 GMT 48.838791 1.701218 24,825 273 436 832
2018-06-22 13:40:36 GMT 48.838512 1.710687 24,625 273 436 832
2018-06-22 13:40:29 GMT 48.837845 1.730347 24,700 273 434 832
2018-06-22 13:40:24 GMT 48.837250 1.747671 24,550 273 431 960
2018-06-22 13:40:17 GMT 48.836742 1.762511 24,425 273 430 1024
2018-06-22 13:40:13 GMT 48.836243 1.777954 24,200 273 427 1280
2018-06-22 13:40:10 GMT 48.835968 1.785630 24,425 273 428 1152
2018-06-22 13:40:07 GMT 48.835602 1.796546 24,350 273 427 1344
2018-06-22 13:40:03 GMT 48.835205 1.807612 24,200 273 426 1344
2018-06-22 13:39:57 GMT 48.834648 1.825031 24,150 273 426 1344
2018-06-22 13:39:53 GMT 48.834229 1.837463 23,925 273 425 1280
2018-06-22 13:39:49 GMT 48.833672 1.853148 23,950 273 424 1280
2018-06-22 13:39:40 GMT 48.832787 1.878734 23,775 273 422 1216
2018-06-22 13:39:37 GMT 48.832554 1.885890 23,525 273 422 1216
2018-06-22 13:39:34 GMT 48.832306 1.893451 23,675 273 422 1216
2018-06-22 13:39:31 GMT 48.831947 1.902659 23,450 273 421 1216
2018-06-22 13:39:28 GMT 48.831482 1.916269 23,525 274 418 1408
2018-06-22 13:39:24 GMT 48.831249 1.923330 23,350 274 416 1536
2018-06-22 13:39:21 GMT 48.830750 1.936552 23,400 274 419 1344
2018-06-22 13:39:14 GMT 48.830200 1.952538 23,200 274 417 1408
2018-06-22 13:39:10 GMT 48.829742 1.966130 23,075 274 416 1472
2018-06-22 13:39:06 GMT 48.829422 1.975215 23,025 274 410 1728
2018-06-22 13:39:03 GMT 48.829056 1.985920 22,950 274 416 1472
2018-06-22 13:38:59 GMT 48.828594 1.998572 22,775 274 416 1536
2018-06-22 13:38:55 GMT 48.828278 2.007118 22,775 274 415 1600
2018-06-22 13:38:51 GMT 48.827896 2.017870 22,650 274 414 1600
2018-06-22 13:38:48 GMT 48.827431 2.031676 22,625 274 414 1600
2018-06-22 13:38:44 GMT 48.827106 2.040638 22,525 274 414 1600
2018-06-22 13:38:41 GMT 48.826813 2.049091 22,450 274 414 1600
2018-06-22 13:38:35 GMT 48.826172 2.066064 22,300 274 413 1600
2018-06-22 13:38:30 GMT 48.825668 2.080642 22,150 274 413 1600
2018-06-22 13:38:24 GMT 48.824890 2.101135 21,975 274 412 1600
2018-06-22 13:38:19 GMT 48.824547 2.111471 21,875 274 411 1600
2018-06-22 13:38:15 GMT 48.824066 2.124869 21,700 274 411 1664
2018-06-22 13:38:12 GMT 48.823753 2.132360 21,700 274 411 1664
2018-06-22 13:38:09 GMT 48.823429 2.140527 21,525 274 410 1728
2018-06-22 13:38:04 GMT 48.822922 2.155574 21,475 274 410 1728
2018-06-22 13:38:01 GMT 48.822453 2.167993 21,350 274 409 1728
2018-06-22 13:37:58 GMT 48.822327 2.172687 21,300 274 406 1600
2018-06-22 13:37:53 GMT 48.821777 2.186702 21,125 274 408 1664
2018-06-22 13:37:50 GMT 48.821457 2.195505 21,075 274 408 1664
2018-06-22 13:37:46 GMT 48.821102 2.207457 20,825 274 406 1600
2018-06-22 13:37:42 GMT 48.820683 2.216925 20,850 274 407 1664
2018-06-22 13:37:39 GMT 48.820404 2.225165 20,800 274 406 1600
2018-06-22 13:37:36 GMT 48.820038 2.233746 20,525 274 405 1664
2018-06-22 13:37:31 GMT 48.819534 2.248817 20,525 274 404 1600
2018-06-22 13:37:27 GMT 48.819099 2.260437 20,475 274 403 1664
2018-06-22 13:37:23 GMT 48.818573 2.274804 20,325 274 403 1728
2018-06-22 13:37:20 GMT 48.818344 2.280790 20,275 274 403 1728
2018-06-22 13:37:17 GMT 48.818069 2.288185 20,200 274 402 1792
2018-06-22 13:37:12 GMT 48.817429 2.306143 20,025 274 401 1856
2018-06-22 13:37:09 GMT 48.817097 2.315007 19,925 274 401 1792
2018-06-22 13:37:00 GMT 48.816307 2.336763 19,700 274 400 1856
2018-06-22 13:36:56 GMT 48.815872 2.348891 19,550 267 387 2432
2018-06-22 13:36:53 GMT 48.815598 2.355863 19,500 274 399 1856
2018-06-22 13:36:50 GMT 48.815231 2.365230 19,325 274 397 1792
2018-06-22 13:36:47 GMT 48.814861 2.375071 19,300 274 398 1856
2018-06-22 13:36:42 GMT 48.814499 2.385935 19,150 274 398 1792
2018-06-22 13:36:39 GMT 48.813995 2.396710 18,975 274 397 1792
2018-06-22 13:36:36 GMT 48.813698 2.403765 18,975 274 396 1792
2018-06-22 13:36:31 GMT 48.813278 2.413956 18,775 274 395 1728
2018-06-22 13:36:28 GMT 48.812714 2.427626 18,725 275 394 1728
2018-06-22 13:36:23 GMT 48.812115 2.440483 18,550 275 393 1728
2018-06-22 13:36:19 GMT 48.811649 2.450674 18,375 275 392 1664
2018-06-22 13:36:16 GMT 48.811157 2.460092 18,400 275 392 1664
2018-06-22 13:36:08 GMT 48.810059 2.481079 18,200 275 390 1792
2018-06-22 13:36:05 GMT 48.809742 2.487175 18,125 275 389 1984
2018-06-22 13:35:58 GMT 48.808594 2.508263 17,725 274 388 2112
2018-06-22 13:35:55 GMT 48.808346 2.514424 17,800 273 388 2176
2018-06-22 13:35:47 GMT 48.808113 2.535746 17,500 269 389 2368
2018-06-22 13:35:44 GMT 48.808319 2.544884 17,200 267 387 2432
2018-06-22 13:35:40 GMT 48.808914 2.558124 17,175 267 387 2432
2018-06-22 13:35:37 GMT 48.809090 2.562706 17,100 267 387 2432
2018-06-22 13:35:34 GMT 48.809601 2.573829 16,925 267 387 2432
2018-06-22 13:35:27 GMT 48.810471 2.592421 16,625 267 385 2368
2018-06-22 13:35:22 GMT 48.810951 2.603615 16,500 267 384 2432
2018-06-22 13:35:18 GMT 48.811523 2.616366 16,275 266 383 2560
2018-06-22 13:35:15 GMT 48.811790 2.622263 16,200 266 383 2624
2018-06-22 13:35:11 GMT 48.812347 2.633828 16,050 266 383 2752
2018-06-22 13:35:05 GMT 48.813126 2.650029 15,775 266 382 2880
2018-06-22 13:35:01 GMT 48.813675 2.662424 15,550 266 382 2880
2018-06-22 13:34:57 GMT 48.814087 2.671298 15,400 266 382 2688
2018-06-22 13:34:54 GMT 48.814537 2.680881 15,275 266 381 2432
2018-06-22 13:34:48 GMT 48.815422 2.699601 14,975 266 381 2368
2018-06-22 13:34:43 GMT 48.815842 2.708202 14,825 266 380 2432
2018-06-22 13:34:40 GMT 48.816284 2.716581 14,700 266 379 2496
2018-06-22 13:34:35 GMT 48.817154 2.733413 14,450 266 378 2560
2018-06-22 13:34:30 GMT 48.817795 2.745807 14,250 266 377 2560
2018-06-22 13:34:27 GMT 48.818115 2.752216 14,150 266 376 2496
2018-06-22 13:34:22 GMT 48.818867 2.765591 13,925 266 375 2560
2018-06-22 13:34:19 GMT 48.819286 2.773253 13,800 266 374 2496
2018-06-22 13:34:12 GMT 48.820312 2.792077 13,425 266 372 2560
2018-06-22 13:34:08 GMT 48.820774 2.801369 13,350 266 372 2560
2018-06-22 13:34:01 GMT 48.821777 2.821514 13,000 267 369 2688
2018-06-22 13:33:57 GMT 48.822098 2.828698 12,900 267 369 2688
2018-06-22 13:33:52 GMT 48.822590 2.840905 12,675 268 368 2944
2018-06-22 13:33:49 GMT 48.822914 2.851675 12,475 268 367 3072
2018-06-22 13:33:45 GMT 48.823059 2.858769 12,325 269 367 3136
2018-06-22 13:33:41 GMT 48.823288 2.871696 12,075 269 367 3072
2018-06-22 13:33:38 GMT 48.823383 2.878346 11,950 269 368 2688
2018-06-22 13:33:35 GMT 48.823475 2.886152 11,825 269 368 2368
2018-06-22 13:33:32 GMT 48.823700 2.894686 11,700 266 370 1600
2018-06-22 13:33:28 GMT 48.824524 2.905673 11,600 258 374 704
2018-06-22 13:33:25 GMT 48.825256 2.912081 11,550 256 375 576
2018-06-22 13:33:21 GMT 48.826950 2.922011 11,525 251 377 576
2018-06-22 13:33:17 GMT 48.829697 2.932786 11,475 246 379 384
2018-06-22 13:33:14 GMT 48.831940 2.940181 11,475 243 379 384
2018-06-22 13:33:10 GMT 48.834785 2.947588 11,450 238 379 640
2018-06-22 13:33:04 GMT 48.841442 2.961683 11,350 229 376 1280
2018-06-22 13:32:59 GMT 48.846542 2.970182 11,250 225 375 1088
2018-06-22 13:32:53 GMT 48.855469 2.981591 11,150 213 369 960
2018-06-22 13:32:49 GMT 48.860065 2.986257 11,100 211 368 960
2018-06-22 13:32:39 GMT 48.877075 2.997859 10,925 196 359 960
2018-06-22 13:32:32 GMT 48.888184 3.001436 10,825 187 352 768
2018-06-22 13:32:29 GMT 48.893417 3.002155 10,775 183 349 896
2018-06-22 13:32:21 GMT 48.905502 3.002296 10,625 178 340 1088
2018-06-22 13:32:18 GMT 48.910126 3.002085 10,575 178 336 1024
2018-06-22 13:32:12 GMT 48.919830 3.001662 10,475 178 323 1280
2018-06-22 13:32:08 GMT 48.927238 3.001291 10,425 178 322 1472
2018-06-22 13:31:59 GMT 48.938457 3.000641 10,150 176 316 2560
2018-06-22 13:31:56 GMT 48.943115 3.000135 10,000 174 315 2560
2018-06-22 13:31:48 GMT 48.954163 2.997507 9,700 163 311 2432
2018-06-22 13:31:45 GMT 48.957733 2.996015 9,600 157 310 2432
2018-06-22 13:31:39 GMT 48.966568 2.990112 9,275 145 304 2304
2018-06-22 13:31:36 GMT 48.970779 2.986098 9,200 143 304 2304
2018-06-22 13:31:27 GMT 48.979248 2.974619 8,875 130 298 2496
2018-06-22 13:31:24 GMT 48.982265 2.968911 8,725 125 296 2752
2018-06-22 13:31:14 GMT 48.988312 2.951801 8,225 107 289 2944
2018-06-22 13:31:07 GMT 48.990829 2.936385 7,875 99 285 2304
2018-06-22 13:31:04 GMT 48.991528 2.930603 7,800 99 282 2112
2018-06-22 13:30:55 GMT 48.993622 2.911659 7,375 99 276 2048
2018-06-22 13:30:51 GMT 48.994125 2.907292 7,375 99 276 2048
2018-06-22 13:30:44 GMT 48.995903 2.891934 7,025 100 269 2816
2018-06-22 13:30:33 GMT 48.998371 2.872708 6,550 101 267 2304
2018-06-22 13:30:21 GMT 49.001305 2.851603 6,175 102 255 1216
2018-06-22 13:30:12 GMT 49.003910 2.833678 5,900 102 246 2240
2018-06-22 13:30:00 GMT 49.006668 2.813838 5,375 100 243 3008
2018-06-22 13:29:50 GMT 49.008102 2.798044 4,900 93 241 2752
2018-06-22 13:29:40 GMT 49.008041 2.781231 4,325 85 235 2048
2018-06-22 13:29:30 GMT 49.006985 2.763640 3,850 84 221 1408
2018-06-22 13:29:19 GMT 49.005959 2.747233 3,675 84 208 1344
2018-06-22 13:29:06 GMT 49.004929 2.730736 3,675 84 191 576
2018-06-22 13:28:56 GMT 49.004097 2.716876 3,575 84 179 768
2018-06-22 13:28:46 GMT 49.003353 2.704082 3,325 85 171 2432
2018-06-22 13:28:37 GMT 49.002777 2.693129 2,925 84 172 2432
2018-06-22 13:28:34 GMT 49.002548 2.689678 2,800 84 173 2432
2018-06-22 13:28:27 GMT 49.002048 2.681676 2,500 85 174 2304
2018-06-22 13:28:24 GMT 49.001862 2.678058 2,300 85 174 1600
2018-06-22 13:28:20 GMT 49.001633 2.673410 2,300 85 174 1600
2018-06-22 13:28:15 GMT 49.001312 2.667354 2,175 85 172 1664
2018-06-22 13:28:12 GMT 49.001118 2.663317 2,075 85 170 1856
2018-06-22 13:28:06 GMT 49.000698 2.655728 1,825 85 166 2112
2018-06-22 13:28:03 GMT 49.000561 2.652548 1,800 85 167 1920
2018-06-22 13:27:55 GMT 49.000095 2.643657 1,550 85 165 1792
2018-06-22 13:27:51 GMT 48.999817 2.638092 1,400 85 164 2304
2018-06-22 13:27:44 GMT 48.999390 2.630451 1,100 85 166 2688
2018-06-22 13:27:35 GMT 48.998745 2.618794 650 85 173 2432
2018-06-22 13:27:28 GMT 48.998325 2.610626 375 86 175 2496

Making use of Plane Finder data

You are free to use the raw flight data, aircraft information and images provided in this report for your own purposes provided the data is correctly attributed to Plane Finder. We ask that you please credit Plane Finder and link to planefinder.net in close proximity to the content.

Optionally one of the following logos (no smaller then 150x24px) can be used and must link to planefinder.net

Embedding the Plane Finder map

You are welcome to embed the Plane Finder playback map on your website to offer visitors a more interactive experience. We suggest using the following HTML code:

<iframe src="//planefinder.net/data/report/AC885-C-GFAH-7700-squawk-2018-06-22/map" width="800" height="600" seamless="seamless"></iframe>

Where our data comes from

Plane Finder has a global network of data feeds and antenna radars that receive data broadcast directly from aircraft. The primary technologies used are ADS-B and MLAT. We also show feeds from the FAA and a FLARM glider feed.

Click here to find out more about the Plane Finder network.

How we collect our data